Time,TemperatureF,DewpointF,PressureIn,WindDirection,WindDirectionDegrees,WindSpeedMPH,WindSpeedGustMPH,Humidity,HourlyPrecipIn,Conditions,Clouds,dailyrainin,SoftwareType,DateUTC
2013-09-24 00:00:00,43.3,41.1,30.16,SSE,151,3.5,3.5,92,0.00,CLR,,0.00,WeatherDisplay:10.37,2013-09-24 04:00:00,
2013-09-24 00:01:00,43.5,41.3,30.16,SSE,151,3.5,3.5,92,0.00,CLR,,0.00,WeatherDisplay:10.37,2013-09-24 04:01:00,
2013-09-24 00:06:00,43.3,41.1,30.16,SSE,152,0.0,0.0,92,0.00,CLR,,0.00,WeatherDisplay:10.37,2013-09-24 04:06:00,
2013-09-24 00:07:00,43.3,41.1,30.16,SSE,152,2.0,2.0,92,0.00,CLR,,0.00,WeatherDisplay:10.37,2013-09-24 04:07:00,
2013-09-24 00:11:00,43.5,41.3,30.16,SSE,154,3.5,3.5,92,0.00,CLR,,0.00,WeatherDisplay:10.37,2013-09-24 04:11:00,
2013-09-24 00:12:00,43.5,41.3,30.16,SSE,154,3.5,3.5,92,0.00,CLR,,0.00,WeatherDisplay:10.37,2013-09-24 04:12:00,
2013-09-24 00:16:00,43.3,41.1,30.16,SSE,154,0.0,0.0,92,0.00,CLR,,0.00,WeatherDisplay:10.37,2013-09-24 04:16:00,
2013-09-24 00:17:00,43.3,41.1,30.16,SSE,154,0.0,0.0,92,0.00,CLR,,0.00,WeatherDisplay:10.37,2013-09-24 04:17:00,
2013-09-24 00:21:00,43.2,41.0,30.16,SSE,154,0.0,0.0,92,0.00,CLR,,0.00,WeatherDisplay:10.37,2013-09-24 04:21:00,
2013-09-24 00:22:00,43.2,41.0,30.16,SSE,154,0.0,0.0,92,0.00,CLR,,0.00,WeatherDisplay:10.37,2013-09-24 04:22:00,
2013-09-24 00:23:00,43.1,40.9,30.16,SSE,154,2.3,2.3,92,0.00,CLR,,0.00,WeatherDisplay:10.37,2013-09-24 04:23:00,
2013-09-24 00:26:00,42.9,41.0,30.16,SSE,154,0.0,0.0,93,0.00,CLR,,0.00,WeatherDisplay:10.37,2013-09-24 04:26:00,
2013-09-24 00:27:00,42.9,41.0,30.16,SSE,154,3.5,3.5,93,0.00,CLR,,0.00,WeatherDisplay:10.37,2013-09-24 04:27:00,
2013-09-24 00:28:00,42.9,41.0,30.16,SSE,154,3.5,0.0,93,0.00,CLR,,0.00,WeatherDisplay:10.37,2013-09-24 04:28:00,
2013-09-24 00:29:00,42.9,41.0,30.16,SSE,154,0.0,0.0,93,0.00,CLR,,0.00,WeatherDisplay:10.37,2013-09-24 04:29:00,
2013-09-24 00:31:00,42.9,41.0,30.16,SSE,154,0.0,0.5,93,0.00,CLR,,0.00,WeatherDisplay:10.37,2013-09-24 04:31:00,
2013-09-24 00:32:00,42.9,41.0,30.16,SSE,154,3.5,3.5,93,0.00,CLR,,0.00,WeatherDisplay:10.37,2013-09-24 04:32:00,
2013-09-24 00:33:00,42.9,41.0,30.16,SSE,154,3.5,0.0,93,0.00,CLR,,0.00,WeatherDisplay:10.37,2013-09-24 04:33:00,
2013-09-24 00:34:00,42.8,40.9,30.16,SSE,154,0.0,0.0,93,0.00,CLR,,0.00,WeatherDisplay:10.37,2013-09-24 04:34:00,
2013-09-24 00:37:00,42.9,41.0,30.16,SSE,154,0.0,0.0,93,0.00,CLR,,0.00,WeatherDisplay:10.37,2013-09-24 04:37:00,
2013-09-24 00:38:00,42.9,41.0,30.17,SSE,154,0.0,0.0,93,0.00,CLR,,0.00,WeatherDisplay:10.37,2013-09-24 04:38:00,
2013-09-24 00:39:00,42.8,40.9,30.17,SSE,154,0.0,0.0,93,0.00,CLR,,0.00,WeatherDisplay:10.37,2013-09-24 04:39:00,
2013-09-24 00:42:00,42.8,40.9,30.17,SSE,154,0.0,0.0,93,0.00,CLR,,0.00,WeatherDisplay:10.37,2013-09-24 04:42:00,
2013-09-24 00:43:00,42.8,40.9,30.17,SSE,154,0.0,0.0,93,0.00,CLR,,0.00,WeatherDisplay:10.37,2013-09-24 04:43:00,
2013-09-24 00:44:00,42.8,40.9,30.17,SSE,154,0.0,0.0,93,0.00,CLR,,0.00,WeatherDisplay:10.37,2013-09-24 04:44:00,
2013-09-24 00:45:00,42.8,40.9,30.16,SSE,154,0.0,0.0,93,0.00,CLR,,0.00,WeatherDisplay:10.37,2013-09-24 04:45:00,
2013-09-24 00:47:00,42.8,40.9,30.16,SSE,154,3.0,3.0,93,0.00,CLR,,0.00,WeatherDisplay:10.37,2013-09-24 04:47:00,
2013-09-24 00:48:00,42.8,40.9,30.16,SSE,154,3.5,3.5,93,0.00,CLR,,0.00,WeatherDisplay:10.37,2013-09-24 04:48:00,
2013-09-24 00:49:00,42.8,40.9,30.16,SSE,154,0.0,0.0,93,0.00,CLR,,0.00,WeatherDisplay:10.37,2013-09-24 04:49:00,
2013-09-24 00:50:00,42.8,40.9,30.16,SSE,155,0.0,0.0,93,0.00,CLR,,0.00,WeatherDisplay:10.37,2013-09-24 04:50:00,
2013-09-24 00:52:00,42.8,40.9,30.16,SSE,155,3.0,3.0,93,0.00,CLR,,0.00,WeatherDisplay:10.37,2013-09-24 04:52:00,
2013-09-24 00:53:00,42.8,40.9,30.16,SSE,155,3.5,3.5,93,0.00,CLR,,0.00,WeatherDisplay:10.37,2013-09-24 04:53:00,
2013-09-24 00:54:00,42.8,40.9,30.16,SSE,155,4.6,4.6,93,0.00,CLR,,0.00,WeatherDisplay:10.37,2013-09-24 04:54:00,
2013-09-24 00:55:00,42.8,40.9,30.16,SSE,155,4.6,4.6,93,0.00,CLR,,0.00,WeatherDisplay:10.37,2013-09-24 04:55:00,
2013-09-24 00:57:00,42.8,40.9,30.16,SSE,155,0.0,0.0,93,0.00,CLR,,0.00,WeatherDisplay:10.37,2013-09-24 04:57:00,
2013-09-24 00:58:00,42.8,40.9,30.16,SSE,155,0.0,0.0,93,0.00,CLR,,0.00,WeatherDisplay:10.37,2013-09-24 04:58:00,
2013-09-24 01:00:00,42.6,40.7,30.16,SSE,155,0.0,0.0,93,0.00,CLR,,0.00,WeatherDisplay:10.37,2013-09-24 05:00:00,
2013-09-24 01:01:00,42.6,40.7,30.16,SSE,155,0.0,0.0,93,0.00,CLR,,0.00,WeatherDisplay:10.37,2013-09-24 05:01:00,
2013-09-24 01:02:00,42.6,40.7,30.16,SSE,157,0.0,0.0,93,0.00,CLR,,0.00,WeatherDisplay:10.37,2013-09-24 05:02:00,
2013-09-24 01:03:00,42.6,40.7,30.16,SSE,157,0.0,0.0,93,0.00,CLR,,0.00,WeatherDisplay:10.37,2013-09-24 05:03:00,
2013-09-24 01:05:00,42.6,40.7,30.16,SSE,157,3.5,3.5,93,0.00,CLR,,0.00,WeatherDisplay:10.37,2013-09-24 05:05:00,
2013-09-24 01:06:00,42.6,40.7,30.16,SSE,157,3.5,3.5,93,0.00,CLR,,0.00,WeatherDisplay:10.37,2013-09-24 05:06:00,
2013-09-24 01:07:00,42.6,40.7,30.16,SSE,157,4.0,4.0,93,0.00,CLR,,0.00,WeatherDisplay:10.37,2013-09-24 05:07:00,
2013-09-24 01:08:00,42.6,40.7,30.16,SSE,157,4.6,4.6,93,0.00,CLR,,0.00,WeatherDisplay:10.37,2013-09-24 05:08:00,
2013-09-24 01:11:00,42.6,40.7,30.16,SSE,157,0.0,0.0,93,0.00,CLR,,0.00,WeatherDisplay:10.37,2013-09-24 05:11:00,
2013-09-24 01:12:00,42.6,40.7,30.17,SSE,157,0.0,0.0,93,0.00,CLR,,0.00,WeatherDisplay:10.37,2013-09-24 05:12:00,
2013-09-24 01:13:00,42.6,40.7,30.17,SSE,157,0.0,0.0,93,0.00,CLR,,0.00,WeatherDisplay:10.37,2013-09-24 05:13:00,
2013-09-24 01:16:00,42.5,40.6,30.17,SSE,157,1.1,0.0,93,0.00,CLR,,0.00,WeatherDisplay:10.37,2013-09-24 05:16:00,
2013-09-24 01:17:00,42.5,40.6,30.17,SSE,157,0.0,0.0,93,0.00,CLR,,0.00,WeatherDisplay:10.37,2013-09-24 05:17:00,
2013-09-24 01:18:00,42.5,40.6,30.17,SSE,157,0.0,0.0,93,0.00,CLR,,0.00,WeatherDisplay:10.37,2013-09-24 05:18:00,
2013-09-24 01:19:00,42.5,40.6,30.17,SSE,157,0.0,0.0,93,0.00,CLR,,0.00,WeatherDisplay:10.37,2013-09-24 05:19:00,
2013-09-24 01:21:00,42.5,40.6,30.17,SSE,157,0.0,0.0,93,0.00,CLR,,0.00,WeatherDisplay:10.37,2013-09-24 05:21:00,
2013-09-24 01:22:00,42.5,40.6,30.16,SSE,157,4.6,4.6,93,0.00,CLR,,0.00,WeatherDisplay:10.37,2013-09-24 05:22:00,
2013-09-24 01:23:00,42.5,40.6,30.16,SSE,157,4.6,4.6,93,0.00,CLR,,0.00,WeatherDisplay:10.37,2013-09-24 05:23:00,
2013-09-24 01:24:00,42.5,40.9,30.16,SSE,158,4.6,4.6,94,0.00,CLR,,0.00,WeatherDisplay:10.37,2013-09-24 05:24:00,
2013-09-24 01:26:00,42.5,40.9,30.16,SSE,157,0.0,0.0,94,0.00,CLR,,0.00,WeatherDisplay:10.37,2013-09-24 05:26:00,
2013-09-24 01:28:00,42.5,40.9,30.16,SSE,158,4.6,4.6,94,0.00,CLR,,0.00,WeatherDisplay:10.37,2013-09-24 05:28:00,
2013-09-24 01:29:00,42.5,40.9,30.16,SSE,158,5.0,5.0,94,0.00,CLR,,0.00,WeatherDisplay:10.37,2013-09-24 05:29:00,
2013-09-24 01:32:00,42.5,40.9,30.16,SSE,158,5.8,5.8,94,0.00,CLR,,0.00,WeatherDisplay:10.37,2013-09-24 05:32:00,
2013-09-24 01:33:00,42.5,40.9,30.16,SSE,158,1.1,0.0,94,0.00,CLR,,0.00,WeatherDisplay:10.37,2013-09-24 05:33:00,
2013-09-24 01:34:00,42.5,40.9,30.16,SSE,158,0.0,0.0,94,0.00,CLR,,0.00,WeatherDisplay:10.37,2013-09-24 05:34:00,
2013-09-24 01:37:00,42.5,40.9,30.16,SSE,158,0.0,0.0,94,0.00,CLR,,0.00,WeatherDisplay:10.37,2013-09-24 05:37:00,
2013-09-24 01:38:00,42.5,40.9,30.16,SSE,158,0.0,0.0,94,0.00,CLR,,0.00,WeatherDisplay:10.37,2013-09-24 05:38:00,
2013-09-24 01:39:00,42.5,40.6,30.16,SSE,155,5.8,5.8,93,0.00,CLR,,0.00,WeatherDisplay:10.37,2013-09-24 05:39:00,
2013-09-24 01:43:00,42.5,40.6,30.16,SSE,155,0.0,0.0,93,0.00,CLR,,0.00,WeatherDisplay:10.37,2013-09-24 05:43:00,
2013-09-24 01:45:00,42.6,40.7,30.16,SSE,155,0.0,0.0,93,0.00,CLR,,0.00,WeatherDisplay:10.37,2013-09-24 05:45:00,
2013-09-24 01:48:00,42.6,40.7,30.16,SSE,158,0.0,0.0,93,0.00,CLR,,0.00,WeatherDisplay:10.37,2013-09-24 05:48:00,
2013-09-24 01:50:00,42.6,40.7,30.16,SSE,158,0.0,0.0,93,0.00,CLR,,0.00,WeatherDisplay:10.37,2013-09-24 05:50:00,
2013-09-24 01:53:00,42.6,40.7,30.16,SSE,158,0.0,0.0,93,0.00,CLR,,0.00,WeatherDisplay:10.37,2013-09-24 05:53:00,
2013-09-24 01:55:00,42.6,40.4,30.16,SSE,158,0.0,0.0,92,0.00,CLR,,0.00,WeatherDisplay:10.37,2013-09-24 05:55:00,
2013-09-24 01:58:00,42.6,40.4,30.16,SSE,158,0.0,0.0,92,0.00,CLR,,0.00,WeatherDisplay:10.37,2013-09-24 05:58:00,
2013-09-24 01:59:00,42.6,40.4,30.16,SSE,158,0.0,0.0,92,0.00,CLR,,0.00,WeatherDisplay:10.37,2013-09-24 05:59:00,
2013-09-24 02:00:00,42.6,40.4,30.16,SSE,158,0.0,0.0,92,0.00,CLR,,0.00,WeatherDisplay:10.37,2013-09-24 06:00:00,
2013-09-24 02:03:00,42.5,40.3,30.16,SSE,158,0.0,0.0,92,0.00,CLR,,0.00,WeatherDisplay:10.37,2013-09-24 06:03:00,
2013-09-24 02:04:00,42.5,40.3,30.16,SSE,157,0.0,0.0,92,0.00,CLR,,0.00,WeatherDisplay:10.37,2013-09-24 06:04:00,
2013-09-24 02:05:00,42.5,40.3,30.16,SSE,157,0.0,0.0,92,0.00,CLR,,0.00,WeatherDisplay:10.37,2013-09-24 06:05:00,
2013-09-24 02:06:00,42.5,40.3,30.16,SSE,157,0.0,0.0,92,0.00,CLR,,0.00,WeatherDisplay:10.37,2013-09-24 06:06:00,
2013-09-24 02:08:00,42.5,40.3,30.16,SSE,158,4.6,4.6,92,0.00,CLR,,0.00,WeatherDisplay:10.37,2013-09-24 06:08:00,
2013-09-24 02:10:00,42.5,40.3,30.16,SSE,158,0.0,0.0,92,0.00,CLR,,0.00,WeatherDisplay:10.37,2013-09-24 06:10:00,
2013-09-24 02:11:00,42.5,40.3,30.16,SSE,158,5.8,5.8,92,0.00,CLR,,0.00,WeatherDisplay:10.37,2013-09-24 06:11:00,
2013-09-24 02:13:00,42.5,40.3,30.16,SSE,157,4.6,4.6,92,0.00,CLR,,0.00,WeatherDisplay:10.37,2013-09-24 06:13:00,
2013-09-24 02:14:00,42.5,40.3,30.16,SSE,157,3.5,3.5,92,0.00,CLR,,0.00,WeatherDisplay:10.37,2013-09-24 06:14:00,
2013-09-24 02:15:00,42.5,40.3,30.16,SSE,157,0.0,0.0,92,0.00,CLR,,0.00,WeatherDisplay:10.37,2013-09-24 06:15:00,
2013-09-24 02:16:00,42.5,40.3,30.16,SSE,158,0.0,0.0,92,0.00,CLR,,0.00,WeatherDisplay:10.37,2013-09-24 06:16:00,
2013-09-24 02:19:00,42.6,40.4,30.16,SSE,158,0.0,0.0,92,0.00,CLR,,0.00,WeatherDisplay:10.37,2013-09-24 06:19:00,
2013-09-24 02:20:00,42.6,40.4,30.16,SSE,151,0.0,0.0,92,0.00,CLR,,0.00,WeatherDisplay:10.37,2013-09-24 06:20:00,
2013-09-24 02:21:00,42.6,40.4,30.16,SSE,155,5.8,5.8,92,0.00,CLR,,0.00,WeatherDisplay:10.37,2013-09-24 06:21:00,
2013-09-24 02:24:00,42.8,40.6,30.16,SSE,158,0.0,0.0,92,0.00,CLR,,0.00,WeatherDisplay:10.37,2013-09-24 06:24:00,
2013-09-24 02:25:00,42.8,40.6,30.16,SSE,158,0.0,0.0,92,0.00,CLR,,0.00,WeatherDisplay:10.37,2013-09-24 06:25:00,
2013-09-24 02:26:00,42.8,40.6,30.16,SSE,157,5.8,5.8,92,0.00,CLR,,0.00,WeatherDisplay:10.37,2013-09-24 06:26:00,
2013-09-24 02:29:00,42.8,40.4,30.16,SSE,155,3.5,0.0,91,0.00,CLR,,0.00,WeatherDisplay:10.37,2013-09-24 06:29:00,
2013-09-24 02:30:00,42.6,40.2,30.16,SSE,155,1.0,1.0,91,0.00,CLR,,0.00,WeatherDisplay:10.37,2013-09-24 06:30:00,
2013-09-24 02:31:00,42.6,40.2,30.16,SSE,155,2.3,2.3,91,0.00,CLR,,0.00,WeatherDisplay:10.37,2013-09-24 06:31:00,
2013-09-24 02:35:00,42.5,40.3,30.16,SSE,158,3.5,3.5,92,0.00,CLR,,0.00,WeatherDisplay:10.37,2013-09-24 06:35:00,
2013-09-24 02:36:00,42.5,40.3,30.16,SSE,158,0.0,0.0,92,0.00,CLR,,0.00,WeatherDisplay:10.37,2013-09-24 06:36:00,
2013-09-24 02:37:00,42.5,40.3,30.16,SSE,158,0.0,0.0,92,0.00,CLR,,0.00,WeatherDisplay:10.37,2013-09-24 06:37:00,
2013-09-24 02:40:00,42.3,40.1,30.16,SSE,158,0.0,0.0,92,0.00,CLR,,0.00,WeatherDisplay:10.37,2013-09-24 06:40:00,
2013-09-24 02:41:00,42.3,40.1,30.16,SSE,158,0.0,0.0,92,0.00,CLR,,0.00,WeatherDisplay:10.37,2013-09-24 06:41:00,
2013-09-24 02:42:00,42.3,40.1,30.16,SSE,158,0.0,0.0,92,0.00,CLR,,0.00,WeatherDisplay:10.37,2013-09-24 06:42:00,
2013-09-24 02:45:00,42.3,40.1,30.16,SSE,158,4.6,4.6,92,0.00,CLR,,0.00,WeatherDisplay:10.37,2013-09-24 06:45:00,
2013-09-24 02:46:00,42.3,40.1,30.16,SSE,158,3.0,3.0,92,0.00,CLR,,0.00,WeatherDisplay:10.37,2013-09-24 06:46:00,
2013-09-24 02:47:00,42.3,40.1,30.16,SSE,158,3.5,3.5,92,0.00,CLR,,0.00,WeatherDisplay:10.37,2013-09-24 06:47:00,
2013-09-24 02:50:00,42.5,40.3,30.16,SSE,160,3.0,3.0,92,0.00,CLR,,0.00,WeatherDisplay:10.37,2013-09-24 06:50:00,
2013-09-24 02:51:00,42.5,40.3,30.16,SSE,158,5.0,5.0,92,0.00,CLR,,0.00,WeatherDisplay:10.37,2013-09-24 06:51:00,
2013-09-24 02:52:00,42.5,40.3,30.16,SSE,158,5.8,5.8,92,0.00,CLR,,0.00,WeatherDisplay:10.37,2013-09-24 06:52:00,
2013-09-24 02:55:00,42.6,40.4,30.15,SSE,162,5.8,5.8,92,0.00,CLR,,0.00,WeatherDisplay:10.37,2013-09-24 06:55:00,
2013-09-24 02:56:00,42.6,40.4,30.15,SSE,158,5.8,5.8,92,0.00,CLR,,0.00,WeatherDisplay:10.37,2013-09-24 06:56:00,
2013-09-24 02:57:00,42.6,40.4,30.15,SSE,158,5.8,5.8,92,0.00,CLR,,0.00,WeatherDisplay:10.37,2013-09-24 06:57:00,
2013-09-24 02:58:00,42.6,40.4,30.15,SSE,161,5.8,5.8,92,0.00,CLR,,0.00,WeatherDisplay:10.37,2013-09-24 06:58:00,
2013-09-24 03:01:00,42.8,40.6,30.15,SSE,162,5.8,5.8,92,0.00,CLR,,0.00,WeatherDisplay:10.37,2013-09-24 07:01:00,
2013-09-24 03:02:00,42.8,40.6,30.15,SSE,161,4.6,0.0,92,0.00,CLR,,0.00,WeatherDisplay:10.37,2013-09-24 07:02:00,
2013-09-24 03:03:00,42.8,40.6,30.15,SSE,152,0.0,0.0,92,0.00,CLR,,0.00,WeatherDisplay:10.37,2013-09-24 07:03:00,
2013-09-24 03:06:00,42.9,40.7,30.16,SSE,155,5.0,5.0,92,0.00,CLR,,0.00,WeatherDisplay:10.37,2013-09-24 07:06:00,
2013-09-24 03:07:00,42.9,40.7,30.15,SSE,148,6.9,6.9,92,0.00,CLR,,0.00,WeatherDisplay:10.37,2013-09-24 07:07:00,
2013-09-24 03:08:00,43.1,40.7,30.15,SSE,152,3.5,3.5,91,0.00,CLR,,0.00,WeatherDisplay:10.37,2013-09-24 07:08:00,
2013-09-24 03:11:00,43.2,40.8,30.15,South,176,5.8,5.8,91,0.00,CLR,,0.00,WeatherDisplay:10.37,2013-09-24 07:11:00,
2013-09-24 03:12:00,43.2,40.8,30.15,South,174,0.0,0.0,91,0.00,CLR,,0.00,WeatherDisplay:10.37,2013-09-24 07:12:00,
2013-09-24 03:13:00,43.2,40.8,30.15,SSE,155,0.0,0.0,91,0.00,CLR,,0.00,WeatherDisplay:10.37,2013-09-24 07:13:00,
2013-09-24 03:16:00,43.3,40.6,30.15,SSE,150,6.9,6.9,90,0.00,CLR,,0.00,WeatherDisplay:10.37,2013-09-24 07:16:00,
2013-09-24 03:17:00,43.3,40.6,30.15,SSE,154,6.9,6.9,90,0.00,CLR,,0.00,WeatherDisplay:10.37,2013-09-24 07:17:00,
2013-09-24 03:18:00,43.3,40.6,30.15,SSE,155,5.0,5.0,90,0.00,CLR,,0.00,WeatherDisplay:10.37,2013-09-24 07:18:00,
2013-09-24 03:19:00,43.3,40.6,30.15,SSE,155,5.8,5.8,90,0.00,CLR,,0.00,WeatherDisplay:10.37,2013-09-24 07:19:00,
2013-09-24 03:21:00,43.3,40.6,30.15,SSE,158,0.0,0.0,90,0.00,CLR,,0.00,WeatherDisplay:10.37,2013-09-24 07:21:00,
2013-09-24 03:22:00,43.3,40.6,30.15,SE,145,5.0,5.0,90,0.00,CLR,,0.00,WeatherDisplay:10.37,2013-09-24 07:22:00,
2013-09-24 03:23:00,43.3,40.6,30.15,SE,145,6.9,6.9,90,0.00,CLR,,0.00,WeatherDisplay:10.37,2013-09-24 07:23:00,
2013-09-24 03:24:00,43.3,40.6,30.15,SSE,147,0.0,0.0,90,0.00,CLR,,0.00,WeatherDisplay:10.37,2013-09-24 07:24:00,
2013-09-24 03:26:00,43.3,40.6,30.15,SSE,148,5.8,5.8,90,0.00,CLR,,0.00,WeatherDisplay:10.37,2013-09-24 07:26:00,
2013-09-24 03:27:00,43.3,40.6,30.15,SSE,154,3.5,3.5,90,0.00,CLR,,0.00,WeatherDisplay:10.37,2013-09-24 07:27:00,
2013-09-24 03:28:00,43.3,40.6,30.15,SSE,154,3.5,0.0,90,0.00,CLR,,0.00,WeatherDisplay:10.37,2013-09-24 07:28:00,
2013-09-24 03:29:00,43.5,40.8,30.15,SSE,157,0.0,0.0,90,0.00,CLR,,0.00,WeatherDisplay:10.37,2013-09-24 07:29:00,
2013-09-24 03:31:00,43.5,40.8,30.15,SSE,158,3.0,3.0,90,0.00,CLR,,0.00,WeatherDisplay:10.37,2013-09-24 07:31:00,
2013-09-24 03:32:00,43.5,40.5,30.15,SSE,158,5.8,5.8,89,0.00,CLR,,0.00,WeatherDisplay:10.37,2013-09-24 07:32:00,
2013-09-24 03:33:00,43.5,40.5,30.15,SSE,150,5.8,5.8,89,0.00,CLR,,0.00,WeatherDisplay:10.37,2013-09-24 07:33:00,
2013-09-24 03:34:00,43.6,40.9,30.15,SSE,151,5.8,5.8,90,0.00,CLR,,0.00,WeatherDisplay:10.37,2013-09-24 07:34:00,
2013-09-24 03:36:00,43.6,40.6,30.15,SSE,157,6.0,6.0,89,0.00,CLR,,0.00,WeatherDisplay:10.37,2013-09-24 07:36:00,
2013-09-24 03:37:00,43.6,40.6,30.15,SSE,157,6.9,6.9,89,0.00,CLR,,0.00,WeatherDisplay:10.37,2013-09-24 07:37:00,
2013-09-24 03:38:00,43.6,40.6,30.15,SSE,160,6.9,6.9,89,0.00,CLR,,0.00,WeatherDisplay:10.37,2013-09-24 07:38:00,
2013-09-24 03:39:00,43.6,40.6,30.15,SSE,160,6.9,6.9,89,0.00,CLR,,0.00,WeatherDisplay:10.37,2013-09-24 07:39:00,
2013-09-24 03:41:00,43.6,40.6,30.15,SSE,160,0.0,0.0,89,0.00,CLR,,0.00,WeatherDisplay:10.37,2013-09-24 07:41:00,
2013-09-24 03:42:00,43.6,40.6,30.15,SSE,160,0.0,0.0,89,0.00,CLR,,0.00,WeatherDisplay:10.37,2013-09-24 07:42:00,
2013-09-24 03:43:00,43.6,40.6,30.15,SSE,160,0.0,0.0,89,0.00,CLR,,0.00,WeatherDisplay:10.37,2013-09-24 07:43:00,
2013-09-24 03:44:00,43.6,40.6,30.15,SSE,160,0.0,0.0,89,0.00,CLR,,0.00,WeatherDisplay:10.37,2013-09-24 07:44:00,
2013-09-24 03:46:00,43.8,40.8,30.15,SSE,154,5.8,5.8,89,0.00,CLR,,0.00,WeatherDisplay:10.37,2013-09-24 07:46:00,
2013-09-24 03:47:00,43.8,40.8,30.15,SSE,154,5.8,5.8,89,0.00,CLR,,0.00,WeatherDisplay:10.37,2013-09-24 07:47:00,
2013-09-24 03:48:00,43.8,40.8,30.15,SSE,155,4.6,4.6,89,0.00,CLR,,0.00,WeatherDisplay:10.37,2013-09-24 07:48:00,
2013-09-24 03:49:00,43.8,40.8,30.15,SSE,152,4.6,4.6,89,0.00,CLR,,0.00,WeatherDisplay:10.37,2013-09-24 07:49:00,
2013-09-24 03:50:00,43.8,40.8,30.15,SSE,157,5.8,5.8,89,0.00,CLR,,0.00,WeatherDisplay:10.37,2013-09-24 07:50:00,
2013-09-24 03:52:00,43.8,40.8,30.15,SSE,152,5.8,5.8,89,0.00,CLR,,0.00,WeatherDisplay:10.37,2013-09-24 07:52:00,
2013-09-24 03:53:00,43.9,40.9,30.16,SSE,152,6.9,6.9,89,0.00,CLR,,0.00,WeatherDisplay:10.37,2013-09-24 07:53:00,
2013-09-24 03:54:00,43.9,40.9,30.16,SSE,152,4.6,4.6,89,0.00,CLR,,0.00,WeatherDisplay:10.37,2013-09-24 07:54:00,
2013-09-24 03:55:00,43.9,40.9,30.16,SSE,154,3.5,0.0,89,0.00,CLR,,0.00,WeatherDisplay:10.37,2013-09-24 07:55:00,
2013-09-24 03:57:00,43.9,40.9,30.15,SSE,155,4.6,4.6,89,0.00,CLR,,0.00,WeatherDisplay:10.37,2013-09-24 07:57:00,
2013-09-24 03:59:00,43.8,40.8,30.16,SSE,154,0.0,0.0,89,0.00,CLR,,0.00,WeatherDisplay:10.37,2013-09-24 07:59:00,
2013-09-24 04:00:00,43.8,40.8,30.16,SSE,154,0.0,0.0,89,0.00,CLR,,0.00,WeatherDisplay:10.37,2013-09-24 08:00:00,
2013-09-24 04:02:00,43.8,40.8,30.15,SE,144,5.8,5.8,89,0.00,CLR,,0.00,WeatherDisplay:10.37,2013-09-24 08:02:00,
2013-09-24 04:04:00,43.8,40.8,30.15,SSE,154,5.8,5.8,89,0.00,CLR,,0.00,WeatherDisplay:10.37,2013-09-24 08:04:00,
2013-09-24 04:06:00,43.8,40.8,30.15,SSE,154,5.8,5.8,89,0.00,CLR,,0.00,WeatherDisplay:10.37,2013-09-24 08:06:00,
2013-09-24 04:07:00,43.8,40.8,30.15,SSE,154,2.3,0.0,89,0.00,CLR,,0.00,WeatherDisplay:10.37,2013-09-24 08:07:00,
2013-09-24 04:08:00,43.9,40.9,30.15,SSE,155,0.0,0.0,89,0.00,CLR,,0.00,WeatherDisplay:10.37,2013-09-24 08:08:00,
2013-09-24 04:09:00,43.8,40.8,30.15,SSE,154,0.0,0.0,89,0.00,CLR,,0.00,WeatherDisplay:10.37,2013-09-24 08:09:00,
2013-09-24 04:11:00,43.8,40.8,30.15,SSE,155,0.0,0.0,89,0.00,CLR,,0.00,WeatherDisplay:10.37,2013-09-24 08:11:00,
2013-09-24 04:12:00,43.8,40.8,30.15,SSE,155,3.0,3.0,89,0.00,CLR,,0.00,WeatherDisplay:10.37,2013-09-24 08:12:00,
2013-09-24 04:13:00,43.8,40.8,30.15,SSE,155,5.0,5.0,89,0.00,CLR,,0.00,WeatherDisplay:10.37,2013-09-24 08:13:00,
2013-09-24 04:14:00,43.6,40.6,30.15,SSE,155,6.0,6.0,89,0.00,CLR,,0.00,WeatherDisplay:10.37,2013-09-24 08:14:00,
2013-09-24 04:16:00,43.6,40.6,30.15,SSE,155,5.8,5.8,89,0.00,CLR,,0.00,WeatherDisplay:10.37,2013-09-24 08:16:00,
2013-09-24 04:17:00,43.5,40.5,30.15,SSE,155,0.0,0.0,89,0.00,CLR,,0.00,WeatherDisplay:10.37,2013-09-24 08:17:00,
2013-09-24 04:18:00,43.5,40.5,30.15,SSE,155,0.0,0.0,89,0.00,CLR,,0.00,WeatherDisplay:10.37,2013-09-24 08:18:00,
2013-09-24 04:19:00,43.3,40.3,30.15,SSE,155,0.0,0.0,89,0.00,CLR,,0.00,WeatherDisplay:10.37,2013-09-24 08:19:00,
2013-09-24 04:21:00,43.3,40.6,30.15,SSE,155,0.0,0.0,90,0.00,CLR,,0.00,WeatherDisplay:10.37,2013-09-24 08:21:00,
2013-09-24 04:23:00,43.2,40.5,30.15,SSE,157,0.0,0.0,90,0.00,CLR,,0.00,WeatherDisplay:10.37,2013-09-24 08:23:00,
2013-09-24 04:24:00,43.2,40.5,30.15,SSE,157,0.0,0.0,90,0.00,CLR,,0.00,WeatherDisplay:10.37,2013-09-24 08:24:00,
2013-09-24 04:26:00,43.1,40.4,30.15,SSE,157,4.6,4.6,90,0.00,CLR,,0.00,WeatherDisplay:10.37,2013-09-24 08:26:00,
2013-09-24 04:28:00,43.1,40.4,30.15,SSE,157,4.6,4.6,90,0.00,CLR,,0.00,WeatherDisplay:10.37,2013-09-24 08:28:00,
2013-09-24 04:29:00,43.1,40.4,30.15,SSE,157,5.0,5.0,90,0.00,CLR,,0.00,WeatherDisplay:10.37,2013-09-24 08:29:00,
2013-09-24 04:30:00,43.1,40.4,30.15,SSE,157,5.0,5.0,90,0.00,CLR,,0.00,WeatherDisplay:10.37,2013-09-24 08:30:00,
2013-09-24 04:31:00,43.1,40.7,30.15,SSE,157,4.6,4.6,91,0.00,CLR,,0.00,WeatherDisplay:10.37,2013-09-24 08:31:00,
2013-09-24 04:33:00,42.9,40.5,30.15,SSE,157,0.0,0.0,91,0.00,CLR,,0.00,WeatherDisplay:10.37,2013-09-24 08:33:00,
2013-09-24 04:34:00,42.9,40.5,30.15,SSE,157,0.0,0.0,91,0.00,CLR,,0.00,WeatherDisplay:10.37,2013-09-24 08:34:00,
2013-09-24 04:35:00,42.9,40.5,30.15,SSE,157,0.0,0.0,91,0.00,CLR,,0.00,WeatherDisplay:10.37,2013-09-24 08:35:00,
2013-09-24 04:36:00,42.9,40.5,30.15,SSE,157,5.8,5.8,91,0.00,CLR,,0.00,WeatherDisplay:10.37,2013-09-24 08:36:00,
2013-09-24 04:38:00,42.9,40.5,30.15,SSE,157,4.0,4.0,91,0.00,CLR,,0.00,WeatherDisplay:10.37,2013-09-24 08:38:00,
2013-09-24 04:39:00,42.9,40.5,30.15,SSE,157,6.0,6.0,91,0.00,CLR,,0.00,WeatherDisplay:10.37,2013-09-24 08:39:00,
2013-09-24 04:40:00,42.9,40.5,30.15,SSE,162,6.0,6.0,91,0.00,CLR,,0.00,WeatherDisplay:10.37,2013-09-24 08:40:00,
2013-09-24 04:42:00,43.1,40.7,30.15,SSE,158,5.8,5.8,91,0.00,CLR,,0.00,WeatherDisplay:10.37,2013-09-24 08:42:00,
2013-09-24 04:44:00,43.1,40.7,30.15,SSE,157,4.6,4.6,91,0.00,CLR,,0.00,WeatherDisplay:10.37,2013-09-24 08:44:00,
2013-09-24 04:45:00,43.1,40.7,30.15,SSE,157,5.8,5.8,91,0.00,CLR,,0.00,WeatherDisplay:10.37,2013-09-24 08:45:00,
2013-09-24 04:47:00,43.2,40.8,30.15,SSE,158,6.9,6.9,91,0.00,CLR,,0.00,WeatherDisplay:10.37,2013-09-24 08:47:00,
2013-09-24 04:49:00,43.2,40.8,30.15,SSE,158,0.0,0.0,91,0.00,CLR,,0.00,WeatherDisplay:10.37,2013-09-24 08:49:00,
2013-09-24 04:50:00,43.2,40.8,30.15,SSE,158,0.0,0.0,91,0.00,CLR,,0.00,WeatherDisplay:10.37,2013-09-24 08:50:00,
2013-09-24 04:52:00,43.2,40.8,30.15,SSE,155,5.8,5.8,91,0.00,CLR,,0.00,WeatherDisplay:10.37,2013-09-24 08:52:00,
2013-09-24 04:54:00,43.2,40.5,30.15,SSE,155,5.8,5.8,90,0.00,CLR,,0.00,WeatherDisplay:10.37,2013-09-24 08:54:00,
2013-09-24 04:55:00,43.2,40.5,30.15,SSE,162,5.8,5.8,90,0.00,CLR,,0.00,WeatherDisplay:10.37,2013-09-24 08:55:00,
2013-09-24 04:56:00,43.2,40.5,30.15,SSE,164,4.6,4.6,90,0.00,CLR,,0.00,WeatherDisplay:10.37,2013-09-24 08:56:00,
2013-09-24 04:57:00,43.2,40.5,30.15,SSE,162,6.9,6.9,90,0.00,CLR,,0.00,WeatherDisplay:10.37,2013-09-24 08:57:00,
2013-09-24 04:59:00,43.3,40.6,30.15,SSE,162,5.8,5.8,90,0.00,CLR,,0.00,WeatherDisplay:10.37,2013-09-24 08:59:00,
2013-09-24 05:00:00,43.3,40.6,30.15,SSE,164,5.8,5.8,90,0.00,CLR,,0.00,WeatherDisplay:10.37,2013-09-24 09:00:00,
2013-09-24 05:01:00,43.3,40.6,30.15,SSE,164,5.8,5.8,90,0.00,CLR,,0.00,WeatherDisplay:10.37,2013-09-24 09:01:00,
2013-09-24 05:02:00,43.3,40.6,30.15,SSE,164,5.8,5.8,90,0.00,CLR,,0.00,WeatherDisplay:10.37,2013-09-24 09:02:00,
2013-09-24 05:03:00,43.3,40.6,30.15,SSE,164,2.3,0.0,90,0.00,CLR,,0.00,WeatherDisplay:10.37,2013-09-24 09:03:00,
2013-09-24 05:04:00,43.2,40.5,30.15,SSE,164,0.0,0.0,90,0.00,CLR,,0.00,WeatherDisplay:10.37,2013-09-24 09:04:00,
2013-09-24 05:06:00,43.2,40.5,30.15,SSE,164,0.0,0.0,90,0.00,CLR,,0.00,WeatherDisplay:10.37,2013-09-24 09:06:00,
2013-09-24 05:07:00,43.2,40.5,30.15,SSE,164,0.0,0.0,90,0.00,CLR,,0.00,WeatherDisplay:10.37,2013-09-24 09:07:00,
2013-09-24 05:08:00,43.2,40.5,30.15,SSE,164,5.0,5.0,90,0.00,CLR,,0.00,WeatherDisplay:10.37,2013-09-24 09:08:00,
2013-09-24 05:09:00,43.3,40.8,30.15,SSE,161,6.9,6.9,91,0.00,CLR,,0.00,WeatherDisplay:10.37,2013-09-24 09:09:00,
2013-09-24 05:11:00,43.3,40.8,30.15,SSE,161,5.8,5.8,91,0.00,CLR,,0.00,WeatherDisplay:10.37,2013-09-24 09:11:00,
2013-09-24 05:13:00,43.3,40.6,30.15,SSE,162,5.8,5.8,90,0.00,CLR,,0.00,WeatherDisplay:10.37,2013-09-24 09:13:00,
2013-09-24 05:15:00,43.3,40.6,30.16,SSE,162,3.0,3.0,90,0.00,CLR,,0.00,WeatherDisplay:10.37,2013-09-24 09:15:00,
2013-09-24 05:16:00,43.3,40.6,30.16,SSE,162,3.5,3.5,90,0.00,CLR,,0.00,WeatherDisplay:10.37,2013-09-24 09:16:00,
2013-09-24 05:18:00,43.2,40.5,30.15,SSE,161,7.0,7.0,90,0.00,CLR,,0.00,WeatherDisplay:10.37,2013-09-24 09:18:00,
2013-09-24 05:19:00,43.2,40.5,30.15,SSE,160,4.0,4.0,90,0.00,CLR,,0.00,WeatherDisplay:10.37,2013-09-24 09:19:00,
2013-09-24 05:20:00,43.1,40.4,30.16,SSE,160,4.6,4.6,90,0.00,CLR,,0.00,WeatherDisplay:10.37,2013-09-24 09:20:00,
2013-09-24 05:21:00,43.1,40.4,30.16,SSE,160,4.6,4.6,90,0.00,CLR,,0.00,WeatherDisplay:10.37,2013-09-24 09:21:00,
2013-09-24 05:24:00,42.8,40.1,30.16,SSE,161,5.8,5.8,90,0.00,CLR,,0.00,WeatherDisplay:10.37,2013-09-24 09:24:00,
2013-09-24 05:25:00,42.6,39.9,30.16,SSE,161,4.6,4.6,90,0.00,CLR,,0.00,WeatherDisplay:10.37,2013-09-24 09:25:00,
2013-09-24 05:26:00,42.6,39.9,30.15,SSE,162,3.5,3.5,90,0.00,CLR,,0.00,WeatherDisplay:10.37,2013-09-24 09:26:00,
2013-09-24 05:27:00,42.6,39.9,30.15,SSE,162,0.0,0.0,90,0.00,CLR,,0.00,WeatherDisplay:10.37,2013-09-24 09:27:00,
2013-09-24 05:30:00,42.5,40.1,30.15,SE,145,5.8,5.8,91,0.00,CLR,,0.00,WeatherDisplay:10.37,2013-09-24 09:30:00,
2013-09-24 05:32:00,42.5,40.1,30.15,SSE,157,3.5,3.5,91,0.00,CLR,,0.00,WeatherDisplay:10.37,2013-09-24 09:32:00,
2013-09-24 05:35:00,42.3,39.9,30.16,SSE,155,4.6,4.6,91,0.00,CLR,,0.00,WeatherDisplay:10.37,2013-09-24 09:35:00,
2013-09-24 05:37:00,42.3,39.9,30.16,SSE,157,0.0,0.0,91,0.00,CLR,,0.00,WeatherDisplay:10.37,2013-09-24 09:37:00,
2013-09-24 05:38:00,42.2,39.8,30.16,SSE,157,0.0,0.0,91,0.00,CLR,,0.00,WeatherDisplay:10.37,2013-09-24 09:38:00,
2013-09-24 05:40:00,42.1,39.9,30.16,SSE,155,0.0,0.0,92,0.00,CLR,,0.00,WeatherDisplay:10.37,2013-09-24 09:40:00,
2013-09-24 05:42:00,42.1,39.9,30.16,SSE,155,0.0,0.0,92,0.00,CLR,,0.00,WeatherDisplay:10.37,2013-09-24 09:42:00,
2013-09-24 05:43:00,42.1,39.9,30.16,SSE,157,3.0,3.0,92,0.00,CLR,,0.00,WeatherDisplay:10.37,2013-09-24 09:43:00,
2013-09-24 05:45:00,41.9,39.7,30.16,SSE,155,4.6,4.6,92,0.00,CLR,,0.00,WeatherDisplay:10.37,2013-09-24 09:45:00,
2013-09-24 05:46:00,41.9,39.7,30.16,SSE,155,4.6,4.6,92,0.00,CLR,,0.00,WeatherDisplay:10.37,2013-09-24 09:46:00,
2013-09-24 05:47:00,41.9,39.7,30.16,SSE,155,4.0,4.0,92,0.00,CLR,,0.00,WeatherDisplay:10.37,2013-09-24 09:47:00,
2013-09-24 05:48:00,41.9,39.7,30.16,SSE,155,4.6,4.6,92,0.00,CLR,,0.00,WeatherDisplay:10.37,2013-09-24 09:48:00,
2013-09-24 05:50:00,41.9,39.7,30.16,SSE,155,4.6,4.6,92,0.00,CLR,,0.00,WeatherDisplay:10.37,2013-09-24 09:50:00,
2013-09-24 05:52:00,41.8,39.6,30.16,SSE,155,0.0,0.0,92,0.00,CLR,,0.00,WeatherDisplay:10.37,2013-09-24 09:52:00,
2013-09-24 05:54:00,41.8,39.6,30.16,SSE,155,5.0,5.0,92,0.00,CLR,,0.00,WeatherDisplay:10.37,2013-09-24 09:54:00,
2013-09-24 05:55:00,41.8,39.6,30.16,SSE,155,4.6,4.6,92,0.00,CLR,,0.00,WeatherDisplay:10.37,2013-09-24 09:55:00,
2013-09-24 05:56:00,41.8,39.6,30.16,SSE,157,5.0,5.0,92,0.00,CLR,,0.00,WeatherDisplay:10.37,2013-09-24 09:56:00,
2013-09-24 05:57:00,41.8,39.6,30.16,SSE,157,5.8,5.8,92,0.00,CLR,,0.00,WeatherDisplay:10.37,2013-09-24 09:57:00,
2013-09-24 05:59:00,41.8,39.6,30.16,SSE,157,5.8,5.8,92,0.00,CLR,,0.00,WeatherDisplay:10.37,2013-09-24 09:59:00,
2013-09-24 06:00:00,41.6,39.4,30.16,SSE,157,4.6,4.6,92,0.00,CLR,,0.00,WeatherDisplay:10.37,2013-09-24 10:00:00,
2013-09-24 06:01:00,41.6,39.4,30.16,SSE,157,5.8,5.8,92,0.00,CLR,,0.00,WeatherDisplay:10.37,2013-09-24 10:01:00,
2013-09-24 06:02:00,41.6,39.4,30.16,SSE,152,6.0,6.0,92,0.00,CLR,,0.00,WeatherDisplay:10.37,2013-09-24 10:02:00,
2013-09-24 06:04:00,41.6,39.7,30.16,SSE,152,4.6,4.6,93,0.00,CLR,,0.00,WeatherDisplay:10.37,2013-09-24 10:04:00,
2013-09-24 06:05:00,41.6,39.7,30.16,SSE,152,4.6,0.0,93,0.00,CLR,,0.00,WeatherDisplay:10.37,2013-09-24 10:05:00,
2013-09-24 06:06:00,41.6,39.7,30.16,SSE,152,0.0,0.0,93,0.00,CLR,,0.00,WeatherDisplay:10.37,2013-09-24 10:06:00,
2013-09-24 06:07:00,41.6,39.7,30.16,SSE,151,0.0,0.0,93,0.00,CLR,,0.00,WeatherDisplay:10.37,2013-09-24 10:07:00,
2013-09-24 06:09:00,41.6,39.7,30.17,SSE,151,5.0,0.0,93,0.00,CLR,,0.00,WeatherDisplay:10.37,2013-09-24 10:09:00,
2013-09-24 06:11:00,41.6,39.7,30.17,SSE,147,5.8,5.8,93,0.00,CLR,,0.00,WeatherDisplay:10.37,2013-09-24 10:11:00,
2013-09-24 06:12:00,41.6,39.7,30.17,SE,145,5.8,5.8,93,0.00,CLR,,0.00,WeatherDisplay:10.37,2013-09-24 10:12:00,
2013-09-24 06:13:00,41.6,39.7,30.17,SSE,151,5.8,5.8,93,0.00,CLR,,0.00,WeatherDisplay:10.37,2013-09-24 10:13:00,
2013-09-24 06:14:00,41.6,39.7,30.16,SSE,151,5.8,5.8,93,0.00,CLR,,0.00,WeatherDisplay:10.37,2013-09-24 10:14:00,
2013-09-24 06:16:00,41.6,39.7,30.16,SSE,155,4.6,4.6,93,0.00,CLR,,0.00,WeatherDisplay:10.37,2013-09-24 10:16:00,
2013-09-24 06:18:00,41.6,39.7,30.16,SSE,154,5.8,5.8,93,0.00,CLR,,0.00,WeatherDisplay:10.37,2013-09-24 10:18:00,
2013-09-24 06:19:00,41.8,39.9,30.16,SSE,157,5.8,5.8,93,0.00,CLR,,0.00,WeatherDisplay:10.37,2013-09-24 10:19:00,
2013-09-24 06:21:00,41.8,39.9,30.16,SSE,157,5.0,5.0,93,0.00,CLR,,0.00,WeatherDisplay:10.37,2013-09-24 10:21:00,
2013-09-24 06:22:00,41.8,39.9,30.16,SSE,157,4.6,4.6,93,0.00,CLR,,0.00,WeatherDisplay:10.37,2013-09-24 10:22:00,
2013-09-24 06:23:00,41.8,39.9,30.16,SSE,157,5.8,5.8,93,0.00,CLR,,0.00,WeatherDisplay:10.37,2013-09-24 10:23:00,
2013-09-24 06:24:00,41.8,39.9,30.16,SSE,157,4.6,4.6,93,0.00,CLR,,0.00,WeatherDisplay:10.37,2013-09-24 10:24:00,
2013-09-24 06:26:00,41.9,40.0,30.16,SSE,157,0.0,0.0,93,0.00,CLR,,0.00,WeatherDisplay:10.37,2013-09-24 10:26:00,
2013-09-24 06:27:00,41.9,40.0,30.16,SSE,158,0.0,0.0,93,0.00,CLR,,0.00,WeatherDisplay:10.37,2013-09-24 10:27:00,
2013-09-24 06:29:00,41.9,40.0,30.16,SSE,155,0.0,0.0,93,0.00,CLR,,0.00,WeatherDisplay:10.37,2013-09-24 10:29:00,
2013-09-24 06:30:00,41.9,40.0,30.16,SSE,155,0.0,0.0,93,0.00,CLR,,0.00,WeatherDisplay:10.37,2013-09-24 10:30:00,
2013-09-24 06:32:00,42.1,40.2,30.16,SSE,155,6.0,6.0,93,0.00,CLR,,0.00,WeatherDisplay:10.37,2013-09-24 10:32:00,
2013-09-24 06:33:00,42.1,40.2,30.17,SSE,155,5.8,5.8,93,0.00,CLR,,0.00,WeatherDisplay:10.37,2013-09-24 10:33:00,
2013-09-24 06:34:00,42.1,40.2,30.17,SSE,157,5.8,5.8,93,0.00,CLR,,0.00,WeatherDisplay:10.37,2013-09-24 10:34:00,
2013-09-24 06:35:00,42.1,39.9,30.17,SSE,157,6.0,6.0,92,0.00,CLR,,0.00,WeatherDisplay:10.37,2013-09-24 10:35:00,
2013-09-24 06:37:00,42.2,40.0,30.17,SSE,161,5.8,5.8,92,0.00,CLR,,0.00,WeatherDisplay:10.37,2013-09-24 10:37:00,
2013-09-24 06:39:00,42.2,40.0,30.17,SSE,161,4.6,4.6,92,0.00,CLR,,0.00,WeatherDisplay:10.37,2013-09-24 10:39:00,
2013-09-24 06:40:00,42.2,40.0,30.17,SSE,157,4.6,4.6,92,0.00,CLR,,0.00,WeatherDisplay:10.37,2013-09-24 10:40:00,
2013-09-24 06:42:00,42.1,39.9,30.17,SSE,158,4.6,4.6,92,0.00,CLR,,0.00,WeatherDisplay:10.37,2013-09-24 10:42:00,
2013-09-24 06:45:00,41.9,39.7,30.17,SSE,150,6.0,6.0,92,0.00,CLR,,0.00,WeatherDisplay:10.37,2013-09-24 10:45:00,
2013-09-24 06:47:00,41.9,39.7,30.17,SSE,150,4.6,4.6,92,0.00,CLR,,0.00,WeatherDisplay:10.37,2013-09-24 10:47:00,
2013-09-24 06:50:00,41.8,39.6,30.17,SSE,151,5.8,5.8,92,0.00,CLR,,0.00,WeatherDisplay:10.37,2013-09-24 10:50:00,
2013-09-24 06:51:00,41.8,39.6,30.17,SSE,152,0.0,0.0,92,0.00,CLR,,0.00,WeatherDisplay:10.37,2013-09-24 10:51:00,
2013-09-24 06:52:00,41.8,39.6,30.17,SSE,158,0.0,0.0,92,0.00,CLR,,0.00,WeatherDisplay:10.37,2013-09-24 10:52:00,
2013-09-24 06:55:00,41.9,39.7,30.17,SSE,157,3.0,3.0,92,0.00,CLR,,0.00,WeatherDisplay:10.37,2013-09-24 10:55:00,
2013-09-24 06:56:00,41.9,39.7,30.17,SSE,157,5.8,5.8,92,0.00,CLR,,0.00,WeatherDisplay:10.37,2013-09-24 10:56:00,
2013-09-24 06:58:00,41.9,39.7,30.17,SSE,157,6.0,6.0,92,0.00,CLR,,0.00,WeatherDisplay:10.37,2013-09-24 10:58:00,
2013-09-24 07:00:00,41.9,39.7,30.17,SSE,158,6.0,6.0,92,0.00,CLR,,0.00,WeatherDisplay:10.37,2013-09-24 11:00:00,
2013-09-24 07:01:00,41.9,39.7,30.17,SSE,157,6.9,6.9,92,0.00,CLR,,0.00,WeatherDisplay:10.37,2013-09-24 11:01:00,
2013-09-24 07:02:00,41.9,39.7,30.17,SSE,158,6.9,6.9,92,0.00,CLR,,0.00,WeatherDisplay:10.37,2013-09-24 11:02:00,
2013-09-24 07:03:00,41.9,39.7,30.17,SSE,158,5.8,5.8,92,0.00,CLR,,0.00,WeatherDisplay:10.37,2013-09-24 11:03:00,
2013-09-24 07:06:00,41.8,39.6,30.18,SSE,158,5.0,5.0,92,0.00,CLR,,0.00,WeatherDisplay:10.37,2013-09-24 11:06:00,
2013-09-24 07:07:00,41.8,39.6,30.18,SSE,158,6.0,6.0,92,0.00,CLR,,0.00,WeatherDisplay:10.37,2013-09-24 11:07:00,
2013-09-24 07:08:00,41.8,39.6,30.18,SSE,158,5.8,5.8,92,0.00,CLR,,0.00,WeatherDisplay:10.37,2013-09-24 11:08:00,
2013-09-24 07:11:00,41.6,39.7,30.18,SSE,160,4.6,4.6,93,0.00,CLR,,0.00,WeatherDisplay:10.37,2013-09-24 11:11:00,
2013-09-24 07:12:00,41.6,39.7,30.18,SSE,160,4.6,4.6,93,0.00,CLR,,0.00,WeatherDisplay:10.37,2013-09-24 11:12:00,
2013-09-24 07:14:00,41.6,39.7,30.18,SSE,160,5.8,5.8,93,0.00,CLR,,0.00,WeatherDisplay:10.37,2013-09-24 11:14:00,
2013-09-24 07:16:00,41.5,39.6,30.18,SSE,155,5.8,5.8,93,0.00,CLR,,0.00,WeatherDisplay:10.37,2013-09-24 11:16:00,
2013-09-24 07:17:00,41.5,39.6,30.18,SSE,155,5.8,5.8,93,0.00,CLR,,0.00,WeatherDisplay:10.37,2013-09-24 11:17:00,
2013-09-24 07:19:00,41.5,39.6,30.18,SSE,157,5.8,5.8,93,0.00,CLR,,0.00,WeatherDisplay:10.37,2013-09-24 11:19:00,
2013-09-24 07:22:00,41.5,39.6,30.18,SSE,158,5.8,5.8,93,0.00,CLR,,0.00,WeatherDisplay:10.37,2013-09-24 11:22:00,
2013-09-24 07:23:00,41.5,39.6,30.18,SSE,158,5.8,5.8,93,0.00,CLR,,0.00,WeatherDisplay:10.37,2013-09-24 11:23:00,
2013-09-24 07:24:00,41.5,39.6,30.18,SSE,154,5.8,5.8,93,0.00,CLR,,0.00,WeatherDisplay:10.37,2013-09-24 11:24:00,
2013-09-24 07:27:00,41.5,39.6,30.18,SSE,154,5.0,5.0,93,0.00,CLR,,0.00,WeatherDisplay:10.37,2013-09-24 11:27:00,
2013-09-24 07:28:00,41.6,39.7,30.18,SSE,154,6.9,6.9,93,0.00,CLR,,0.00,WeatherDisplay:10.37,2013-09-24 11:28:00,
2013-09-24 07:29:00,41.6,39.7,30.18,SSE,155,5.8,5.8,93,0.00,CLR,,0.00,WeatherDisplay:10.37,2013-09-24 11:29:00,
2013-09-24 07:32:00,41.6,39.7,30.18,SSE,154,5.0,5.0,93,0.00,CLR,,0.00,WeatherDisplay:10.37,2013-09-24 11:32:00,
2013-09-24 07:33:00,41.8,39.9,30.18,SSE,155,6.0,6.0,93,0.00,CLR,,0.00,WeatherDisplay:10.37,2013-09-24 11:33:00,
2013-09-24 07:34:00,41.8,39.9,30.18,SSE,157,6.0,6.0,93,0.00,CLR,,0.00,WeatherDisplay:10.37,2013-09-24 11:34:00,
2013-09-24 07:37:00,41.9,40.0,30.18,SSE,155,5.8,5.8,93,0.00,CLR,,0.00,WeatherDisplay:10.37,2013-09-24 11:37:00,
2013-09-24 07:39:00,42.1,40.2,30.18,SSE,155,6.0,6.0,93,0.00,CLR,,0.00,WeatherDisplay:10.37,2013-09-24 11:39:00,
2013-09-24 07:42:00,42.2,40.3,30.18,SSE,154,5.8,5.8,93,0.00,CLR,,0.00,WeatherDisplay:10.37,2013-09-24 11:42:00,
2013-09-24 07:43:00,42.2,40.3,30.18,SSE,154,5.0,5.0,93,0.00,CLR,,0.00,WeatherDisplay:10.37,2013-09-24 11:43:00,
2013-09-24 07:44:00,42.2,40.0,30.18,SSE,154,5.8,5.8,92,0.00,CLR,,0.00,WeatherDisplay:10.37,2013-09-24 11:44:00,
2013-09-24 07:45:00,42.3,40.1,30.18,SSE,154,4.6,4.6,92,0.00,CLR,,0.00,WeatherDisplay:10.37,2013-09-24 11:45:00,
2013-09-24 07:47:00,42.3,40.1,30.18,SSE,154,5.0,5.0,92,0.00,CLR,,0.00,WeatherDisplay:10.37,2013-09-24 11:47:00,
2013-09-24 07:48:00,42.3,40.1,30.18,SSE,154,4.6,4.6,92,0.00,CLR,,0.00,WeatherDisplay:10.37,2013-09-24 11:48:00,
2013-09-24 07:49:00,42.5,40.3,30.18,SSE,154,5.8,5.8,92,0.00,CLR,,0.00,WeatherDisplay:10.37,2013-09-24 11:49:00,
2013-09-24 07:50:00,42.5,40.3,30.18,SSE,154,5.8,5.8,92,0.00,CLR,,0.00,WeatherDisplay:10.37,2013-09-24 11:50:00,
2013-09-24 07:52:00,42.6,40.4,30.18,SSE,154,4.6,4.6,92,0.00,CLR,,0.00,WeatherDisplay:10.37,2013-09-24 11:52:00,
2013-09-24 07:53:00,42.6,40.4,30.18,SSE,154,5.0,5.0,92,0.00,CLR,,0.00,WeatherDisplay:10.37,2013-09-24 11:53:00,
2013-09-24 07:54:00,42.6,40.4,30.18,SSE,154,4.6,4.6,92,0.00,CLR,,0.00,WeatherDisplay:10.37,2013-09-24 11:54:00,
2013-09-24 07:55:00,42.6,40.4,30.18,SSE,154,5.8,5.8,92,0.00,CLR,,0.00,WeatherDisplay:10.37,2013-09-24 11:55:00,
2013-09-24 07:58:00,42.8,40.6,30.18,SSE,155,5.8,5.8,92,0.00,CLR,,0.00,WeatherDisplay:10.37,2013-09-24 11:58:00,
2013-09-24 07:59:00,42.8,40.6,30.18,SSE,152,5.8,5.8,92,0.00,CLR,,0.00,WeatherDisplay:10.37,2013-09-24 11:59:00,
2013-09-24 08:00:00,42.8,40.4,30.18,SSE,152,4.6,4.6,91,0.00,CLR,,0.00,WeatherDisplay:10.37,2013-09-24 12:00:00,
2013-09-24 08:01:00,42.8,40.4,30.18,SSE,152,4.6,4.6,91,0.00,CLR,,0.00,WeatherDisplay:10.37,2013-09-24 12:01:00,
2013-09-24 08:03:00,42.9,40.5,30.18,SSE,152,6.9,6.9,91,0.00,CLR,,0.00,WeatherDisplay:10.37,2013-09-24 12:03:00,
2013-09-24 08:04:00,42.9,40.5,30.18,SSE,152,3.5,3.5,91,0.00,CLR,,0.00,WeatherDisplay:10.37,2013-09-24 12:04:00,
2013-09-24 08:05:00,42.9,40.5,30.18,SSE,152,5.0,5.0,91,0.00,CLR,,0.00,WeatherDisplay:10.37,2013-09-24 12:05:00,
2013-09-24 08:07:00,43.1,40.7,30.18,SSE,152,5.8,5.8,91,0.00,CLR,,0.00,WeatherDisplay:10.37,2013-09-24 12:07:00,
2013-09-24 08:08:00,43.1,40.7,30.18,SSE,152,4.6,4.6,91,0.00,CLR,,0.00,WeatherDisplay:10.37,2013-09-24 12:08:00,
2013-09-24 08:09:00,43.1,40.7,30.18,SSE,154,4.6,4.6,91,0.00,CLR,,0.00,WeatherDisplay:10.37,2013-09-24 12:09:00,
2013-09-24 08:10:00,43.2,40.8,30.18,SSE,152,5.0,5.0,91,0.00,CLR,,0.00,WeatherDisplay:10.37,2013-09-24 12:10:00,
2013-09-24 08:12:00,43.2,40.8,30.18,SSE,154,3.5,3.5,91,0.00,CLR,,0.00,WeatherDisplay:10.37,2013-09-24 12:12:00,
2013-09-24 08:14:00,43.3,40.8,30.18,SSE,154,4.6,0.0,91,0.00,CLR,,0.00,WeatherDisplay:10.37,2013-09-24 12:14:00,
2013-09-24 08:15:00,43.3,40.8,30.18,SSE,154,0.0,0.0,91,0.00,CLR,,0.00,WeatherDisplay:10.37,2013-09-24 12:15:00,
2013-09-24 08:17:00,43.5,40.8,30.18,SSE,154,5.8,5.8,90,0.00,CLR,,0.00,WeatherDisplay:10.37,2013-09-24 12:17:00,
2013-09-24 08:19:00,43.5,40.8,30.18,SSE,151,5.8,5.8,90,0.00,CLR,,0.00,WeatherDisplay:10.37,2013-09-24 12:19:00,
2013-09-24 08:20:00,43.6,40.9,30.18,SSE,154,3.5,3.5,90,0.00,CLR,,0.00,WeatherDisplay:10.37,2013-09-24 12:20:00,
2013-09-24 08:23:00,43.8,41.1,30.18,SSE,154,5.8,5.8,90,0.00,CLR,,0.00,WeatherDisplay:10.37,2013-09-24 12:23:00,
2013-09-24 08:25:00,43.9,41.2,30.18,SSE,151,5.0,5.0,90,0.00,CLR,,0.00,WeatherDisplay:10.37,2013-09-24 12:25:00,
2013-09-24 08:29:00,44.2,41.2,30.18,SSE,151,5.8,5.8,89,0.00,CLR,,0.00,WeatherDisplay:10.37,2013-09-24 12:29:00,
2013-09-24 08:30:00,44.3,41.3,30.18,SSE,150,6.0,6.0,89,0.00,CLR,,0.00,WeatherDisplay:10.37,2013-09-24 12:30:00,
2013-09-24 08:32:00,44.5,41.5,30.18,SSE,150,6.0,6.0,89,0.00,CLR,,0.00,WeatherDisplay:10.37,2013-09-24 12:32:00,
2013-09-24 08:34:00,44.6,41.6,30.18,SSE,150,4.6,4.6,89,0.00,CLR,,0.00,WeatherDisplay:10.37,2013-09-24 12:34:00,
2013-09-24 08:35:00,44.6,41.6,30.18,SSE,150,4.6,4.6,89,0.00,CLR,,0.00,WeatherDisplay:10.37,2013-09-24 12:35:00,
2013-09-24 08:38:00,45.1,42.1,30.18,SSE,151,3.5,3.5,89,0.00,CLR,,0.00,WeatherDisplay:10.37,2013-09-24 12:38:00,
2013-09-24 08:40:00,45.2,42.2,30.18,SSE,152,3.5,3.5,89,0.00,CLR,,0.00,WeatherDisplay:10.37,2013-09-24 12:40:00,
2013-09-24 08:41:00,45.2,41.9,30.18,SSE,152,0.0,0.0,88,0.00,CLR,,0.00,WeatherDisplay:10.37,2013-09-24 12:41:00,
2013-09-24 08:44:00,45.5,41.9,30.18,SSE,152,0.0,0.0,87,0.00,CLR,,0.00,WeatherDisplay:10.37,2013-09-24 12:44:00,
2013-09-24 08:45:00,45.7,42.1,30.18,SSE,152,0.0,0.0,87,0.00,CLR,,0.00,WeatherDisplay:10.37,2013-09-24 12:45:00,
2013-09-24 08:46:00,45.7,42.1,30.18,SSE,152,0.0,0.0,87,0.00,CLR,,0.00,WeatherDisplay:10.37,2013-09-24 12:46:00,
2013-09-24 08:49:00,46.0,42.3,30.18,SSE,151,3.5,3.5,87,0.00,CLR,,0.00,WeatherDisplay:10.37,2013-09-24 12:49:00,
2013-09-24 08:50:00,46.1,42.1,30.18,SSE,151,3.5,3.5,86,0.00,CLR,,0.00,WeatherDisplay:10.37,2013-09-24 12:50:00,
2013-09-24 08:51:00,46.2,42.2,30.18,SSE,151,4.6,4.6,86,0.00,CLR,,0.00,WeatherDisplay:10.37,2013-09-24 12:51:00,
2013-09-24 08:55:00,46.7,42.7,30.18,SSE,151,3.5,3.5,86,0.00,CLR,,0.00,WeatherDisplay:10.37,2013-09-24 12:55:00,
2013-09-24 08:56:00,46.7,42.4,30.18,SSE,151,3.5,3.5,85,0.00,CLR,,0.00,WeatherDisplay:10.37,2013-09-24 12:56:00,
2013-09-24 09:01:00,47.3,43.0,30.17,SSE,151,3.5,3.5,85,0.00,CLR,,0.00,WeatherDisplay:10.37,2013-09-24 13:01:00,
2013-09-24 09:02:00,47.3,43.0,30.17,SSE,151,1.1,1.1,85,0.00,CLR,,0.00,WeatherDisplay:10.37,2013-09-24 13:02:00,
2013-09-24 09:06:00,47.7,43.4,30.18,SSE,151,0.0,0.0,85,0.00,CLR,,0.00,WeatherDisplay:10.37,2013-09-24 13:06:00,
2013-09-24 09:07:00,47.7,43.4,30.18,SSE,151,0.0,0.0,85,0.00,CLR,,0.00,WeatherDisplay:10.37,2013-09-24 13:07:00,
2013-09-24 09:08:00,47.7,43.4,30.18,SSE,151,0.0,0.0,85,0.00,CLR,,0.00,WeatherDisplay:10.37,2013-09-24 13:08:00,
2013-09-24 09:11:00,48.5,43.6,30.18,SSE,151,4.6,4.6,83,0.00,CLR,,0.00,WeatherDisplay:10.37,2013-09-24 13:11:00,
2013-09-24 09:12:00,48.6,43.7,30.18,SSE,151,0.0,0.0,83,0.00,CLR,,0.00,WeatherDisplay:10.37,2013-09-24 13:12:00,
2013-09-24 09:13:00,48.8,43.9,30.18,SSE,151,0.0,0.0,83,0.00,CLR,,0.00,WeatherDisplay:10.37,2013-09-24 13:13:00,
2013-09-24 09:16:00,49.1,44.2,30.18,SSE,151,0.0,0.0,83,0.00,CLR,,0.00,WeatherDisplay:10.37,2013-09-24 13:16:00,
2013-09-24 09:17:00,49.2,44.3,30.18,SSE,151,0.0,0.0,83,0.00,CLR,,0.00,WeatherDisplay:10.37,2013-09-24 13:17:00,
2013-09-24 09:18:00,49.4,44.5,30.18,SSE,151,0.0,0.0,83,0.00,CLR,,0.00,WeatherDisplay:10.37,2013-09-24 13:18:00,
2013-09-24 09:21:00,49.8,44.8,30.17,SSE,151,0.0,0.0,83,0.00,CLR,,0.00,WeatherDisplay:10.37,2013-09-24 13:21:00,
2013-09-24 09:22:00,49.8,44.8,30.17,SSE,151,0.0,0.0,83,0.00,CLR,,0.00,WeatherDisplay:10.37,2013-09-24 13:22:00,
2013-09-24 09:23:00,49.9,44.9,30.17,SSE,151,0.0,0.0,83,0.00,CLR,,0.00,WeatherDisplay:10.37,2013-09-24 13:23:00,
2013-09-24 09:26:00,50.5,44.9,30.17,SSE,151,3.5,3.5,81,0.00,CLR,,0.00,WeatherDisplay:10.37,2013-09-24 13:26:00,
2013-09-24 09:27:00,50.7,45.1,30.17,SSE,151,2.3,2.3,81,0.00,CLR,,0.00,WeatherDisplay:10.37,2013-09-24 13:27:00,
2013-09-24 09:28:00,50.8,45.2,30.18,SSE,151,0.0,0.0,81,0.00,CLR,,0.00,WeatherDisplay:10.37,2013-09-24 13:28:00,
2013-09-24 09:29:00,51.0,45.4,30.18,SSE,151,0.0,0.0,81,0.00,CLR,,0.00,WeatherDisplay:10.37,2013-09-24 13:29:00,
2013-09-24 09:31:00,51.6,46.3,30.17,SSE,151,0.0,0.0,82,0.00,CLR,,0.00,WeatherDisplay:10.37,2013-09-24 13:31:00,
2013-09-24 09:32:00,51.7,46.4,30.17,SSE,151,0.0,0.0,82,0.00,CLR,,0.00,WeatherDisplay:10.37,2013-09-24 13:32:00,
2013-09-24 09:33:00,51.9,46.6,30.17,SSE,151,0.0,0.0,82,0.00,CLR,,0.00,WeatherDisplay:10.37,2013-09-24 13:33:00,
2013-09-24 09:34:00,52.0,46.7,30.17,SSE,151,0.0,0.0,82,0.00,CLR,,0.00,WeatherDisplay:10.37,2013-09-24 13:34:00,
2013-09-24 09:37:00,52.6,46.9,30.18,SSE,151,0.0,0.0,81,0.00,CLR,,0.00,WeatherDisplay:10.37,2013-09-24 13:37:00,
2013-09-24 09:38:00,52.8,46.8,30.18,SSE,151,0.0,0.0,80,0.00,CLR,,0.00,WeatherDisplay:10.37,2013-09-24 13:38:00,
2013-09-24 09:39:00,53.1,47.1,30.18,SSE,151,0.0,0.0,80,0.00,CLR,,0.00,WeatherDisplay:10.37,2013-09-24 13:39:00,
2013-09-24 09:42:00,53.5,47.5,30.18,SSE,151,0.0,0.0,80,0.00,CLR,,0.00,WeatherDisplay:10.37,2013-09-24 13:42:00,
2013-09-24 09:44:00,53.9,47.5,30.17,SSE,154,0.0,0.0,79,0.00,CLR,,0.00,WeatherDisplay:10.37,2013-09-24 13:44:00,
2013-09-24 09:46:00,54.2,47.5,30.18,SSE,154,0.0,0.0,78,0.00,CLR,,0.00,WeatherDisplay:10.37,2013-09-24 13:46:00,
2013-09-24 09:47:00,54.5,47.8,30.17,SSE,154,0.0,0.0,78,0.00,CLR,,0.00,WeatherDisplay:10.37,2013-09-24 13:47:00,
2013-09-24 09:49:00,54.7,48.0,30.17,SSE,154,0.0,0.0,78,0.00,CLR,,0.00,WeatherDisplay:10.37,2013-09-24 13:49:00,
2013-09-24 09:50:00,54.8,47.7,30.17,SSE,154,0.0,0.0,77,0.00,CLR,,0.00,WeatherDisplay:10.37,2013-09-24 13:50:00,
2013-09-24 09:51:00,55.0,47.9,30.17,SSE,154,0.0,0.0,77,0.00,CLR,,0.00,WeatherDisplay:10.37,2013-09-24 13:51:00,
2013-09-24 09:52:00,55.1,48.0,30.17,SSE,154,0.0,0.0,77,0.00,CLR,,0.00,WeatherDisplay:10.37,2013-09-24 13:52:00,
2013-09-24 09:53:00,55.1,47.7,30.17,SSE,154,0.0,0.0,76,0.00,CLR,,0.00,WeatherDisplay:10.37,2013-09-24 13:53:00,
2013-09-24 09:54:00,55.3,47.9,30.17,SSE,154,0.0,0.0,76,0.00,CLR,,0.00,WeatherDisplay:10.37,2013-09-24 13:54:00,
2013-09-24 09:55:00,55.4,48.0,30.17,SSE,154,0.0,0.0,76,0.00,CLR,,0.00,WeatherDisplay:10.37,2013-09-24 13:55:00,
2013-09-24 09:56:00,55.6,48.2,30.17,SSE,154,0.0,0.0,76,0.00,CLR,,0.00,WeatherDisplay:10.37,2013-09-24 13:56:00,
2013-09-24 09:58:00,55.9,48.4,30.17,SSE,154,0.0,0.0,76,0.00,CLR,,0.00,WeatherDisplay:10.37,2013-09-24 13:58:00,
2013-09-24 09:59:00,56.0,48.5,30.17,SSE,154,0.0,0.0,76,0.00,CLR,,0.00,WeatherDisplay:10.37,2013-09-24 13:59:00,
2013-09-24 10:00:00,56.0,48.2,30.17,SSE,154,0.0,0.0,75,0.00,CLR,,0.00,WeatherDisplay:10.37,2013-09-24 14:00:00,
2013-09-24 10:02:00,56.3,48.5,30.17,SSE,154,0.0,0.0,75,0.00,CLR,,0.00,WeatherDisplay:10.37,2013-09-24 14:02:00,
2013-09-24 10:03:00,56.5,49.0,30.17,SSE,154,0.0,0.0,76,0.00,CLR,,0.00,WeatherDisplay:10.37,2013-09-24 14:03:00,
2013-09-24 10:05:00,56.6,48.8,30.17,SSE,154,0.0,0.0,75,0.00,CLR,,0.00,WeatherDisplay:10.37,2013-09-24 14:05:00,
2013-09-24 10:07:00,56.7,48.5,30.16,SSE,154,0.0,0.0,74,0.00,CLR,,0.00,WeatherDisplay:10.37,2013-09-24 14:07:00,
2013-09-24 10:08:00,57.0,49.2,30.16,SSE,154,0.0,0.0,75,0.00,CLR,,0.00,WeatherDisplay:10.37,2013-09-24 14:08:00,
2013-09-24 10:10:00,57.2,49.3,30.16,West,260,0.0,0.0,75,0.00,CLR,,0.00,WeatherDisplay:10.37,2013-09-24 14:10:00,
2013-09-24 10:11:00,57.2,49.3,30.16,West,260,1.1,0.0,75,0.00,CLR,,0.00,WeatherDisplay:10.37,2013-09-24 14:11:00,
2013-09-24 10:12:00,57.3,48.7,30.16,WSW,258,0.0,0.0,73,0.00,CLR,,0.00,WeatherDisplay:10.37,2013-09-24 14:12:00,
2013-09-24 10:13:00,57.3,48.7,30.16,WSW,258,0.0,0.0,73,0.00,CLR,,0.00,WeatherDisplay:10.37,2013-09-24 14:13:00,
2013-09-24 10:15:00,57.3,48.7,30.16,WSW,258,0.0,0.0,73,0.00,CLR,,0.00,WeatherDisplay:10.37,2013-09-24 14:15:00,
2013-09-24 10:16:00,57.3,49.1,30.16,West,260,0.0,0.0,74,0.00,CLR,,0.00,WeatherDisplay:10.37,2013-09-24 14:16:00,
2013-09-24 10:17:00,57.5,49.3,30.16,West,260,0.0,0.0,74,0.00,CLR,,0.00,WeatherDisplay:10.37,2013-09-24 14:17:00,
2013-09-24 10:18:00,57.6,49.4,30.16,WNW,284,1.0,1.0,74,0.00,CLR,,0.00,WeatherDisplay:10.37,2013-09-24 14:18:00,
2013-09-24 10:19:00,57.6,49.4,30.16,WNW,285,1.1,1.1,74,0.00,CLR,,0.00,WeatherDisplay:10.37,2013-09-24 14:19:00,
2013-09-24 10:20:00,57.8,49.6,30.17,WNW,285,0.0,0.0,74,0.00,CLR,,0.00,WeatherDisplay:10.37,2013-09-24 14:20:00,
2013-09-24 10:21:00,57.8,49.6,30.17,WNW,285,0.0,0.0,74,0.00,CLR,,0.00,WeatherDisplay:10.37,2013-09-24 14:21:00,
2013-09-24 10:22:00,57.8,49.2,30.16,NW,316,0.0,0.0,73,0.00,CLR,,0.00,WeatherDisplay:10.37,2013-09-24 14:22:00,
2013-09-24 10:24:00,57.8,49.6,30.16,NW,316,0.0,0.0,74,0.00,CLR,,0.00,WeatherDisplay:10.37,2013-09-24 14:24:00,
2013-09-24 10:25:00,58.0,49.8,30.16,NW,312,0.0,0.0,74,0.00,CLR,,0.00,WeatherDisplay:10.37,2013-09-24 14:25:00,
2013-09-24 10:26:00,58.1,49.9,30.16,NW,312,0.0,0.0,74,0.00,CLR,,0.00,WeatherDisplay:10.37,2013-09-24 14:26:00,
2013-09-24 10:27:00,58.1,49.5,30.16,NW,312,0.0,0.0,73,0.00,CLR,,0.00,WeatherDisplay:10.37,2013-09-24 14:27:00,
2013-09-24 10:29:00,58.3,49.7,30.16,NW,312,0.0,0.0,73,0.00,CLR,,0.00,WeatherDisplay:10.37,2013-09-24 14:29:00,
2013-09-24 10:31:00,58.6,50.0,30.16,NW,309,0.0,0.0,73,0.00,CLR,,0.00,WeatherDisplay:10.37,2013-09-24 14:31:00,
2013-09-24 10:33:00,58.7,49.7,30.16,NW,308,0.0,0.0,72,0.00,CLR,,0.00,WeatherDisplay:10.37,2013-09-24 14:33:00,
2013-09-24 10:34:00,58.7,49.7,30.16,NW,308,0.0,0.0,72,0.00,CLR,,0.00,WeatherDisplay:10.37,2013-09-24 14:34:00,
2013-09-24 10:36:00,58.9,49.9,30.16,NW,308,0.0,0.0,72,0.00,CLR,,0.00,WeatherDisplay:10.37,2013-09-24 14:36:00,
2013-09-24 10:37:00,59.0,50.0,30.16,NW,308,0.0,0.0,72,0.00,CLR,,0.00,WeatherDisplay:10.37,2013-09-24 14:37:00,
2013-09-24 10:39:00,59.0,49.2,30.16,NNW,335,0.0,0.0,70,0.00,CLR,,0.00,WeatherDisplay:10.37,2013-09-24 14:39:00,
2013-09-24 10:42:00,59.0,49.6,30.16,NNW,335,0.0,0.0,71,0.00,CLR,,0.00,WeatherDisplay:10.37,2013-09-24 14:42:00,
2013-09-24 10:44:00,59.2,49.4,30.16,NNW,335,0.0,0.0,70,0.00,CLR,,0.00,WeatherDisplay:10.37,2013-09-24 14:44:00,
2013-09-24 10:45:00,59.3,49.1,30.16,NNW,335,0.0,0.0,69,0.00,CLR,,0.00,WeatherDisplay:10.37,2013-09-24 14:45:00,
2013-09-24 10:47:00,59.5,49.3,30.15,NNW,335,0.0,0.0,69,0.00,CLR,,0.00,WeatherDisplay:10.37,2013-09-24 14:47:00,
2013-09-24 10:48:00,59.5,49.7,30.15,NNW,335,0.0,0.0,70,0.00,CLR,,0.00,WeatherDisplay:10.37,2013-09-24 14:48:00,
2013-09-24 10:49:00,59.6,49.8,30.15,NNW,335,0.0,0.1,70,0.00,CLR,,0.00,WeatherDisplay:10.37,2013-09-24 14:49:00,
2013-09-24 10:50:00,59.6,49.8,30.15,NNW,335,1.1,1.1,70,0.00,CLR,,0.00,WeatherDisplay:10.37,2013-09-24 14:50:00,
2013-09-24 10:52:00,59.6,49.8,30.15,NE,38,4.6,4.6,70,0.00,CLR,,0.00,WeatherDisplay:10.37,2013-09-24 14:52:00,
2013-09-24 10:53:00,59.6,49.8,30.15,NE,38,4.6,0.0,70,0.00,CLR,,0.00,WeatherDisplay:10.37,2013-09-24 14:53:00,
2013-09-24 10:54:00,59.8,50.0,30.15,NE,38,0.0,0.0,70,0.00,CLR,,0.00,WeatherDisplay:10.37,2013-09-24 14:54:00,
2013-09-24 10:55:00,59.8,50.0,30.15,NE,38,0.0,0.0,70,0.00,CLR,,0.00,WeatherDisplay:10.37,2013-09-24 14:55:00,
2013-09-24 10:57:00,59.9,49.3,30.15,NW,326,5.0,5.0,68,0.00,CLR,,0.00,WeatherDisplay:10.37,2013-09-24 14:57:00,
2013-09-24 10:58:00,59.8,49.2,30.16,NNW,332,4.6,4.6,68,0.00,CLR,,0.00,WeatherDisplay:10.37,2013-09-24 14:58:00,
2013-09-24 11:00:00,59.6,49.4,30.16,NNW,332,2.3,0.0,69,0.00,CLR,,0.00,WeatherDisplay:10.37,2013-09-24 15:00:00,
2013-09-24 11:02:00,59.5,49.3,30.16,NNW,332,0.0,0.0,69,0.00,CLR,,0.00,WeatherDisplay:10.37,2013-09-24 15:02:00,
2013-09-24 11:04:00,59.3,49.1,30.15,NNW,332,0.0,0.0,69,0.00,CLR,,0.00,WeatherDisplay:10.37,2013-09-24 15:04:00,
2013-09-24 11:05:00,59.5,49.3,30.15,NNW,332,0.0,0.0,69,0.00,CLR,,0.00,WeatherDisplay:10.37,2013-09-24 15:05:00,
2013-09-24 11:06:00,59.5,49.7,30.15,NNW,332,0.0,0.0,70,0.00,CLR,,0.00,WeatherDisplay:10.37,2013-09-24 15:06:00,
2013-09-24 11:07:00,59.5,49.7,30.15,North,0,0.0,0.0,70,0.00,CLR,,0.00,WeatherDisplay:10.37,2013-09-24 15:07:00,
2013-09-24 11:09:00,59.5,49.7,30.15,North,0,1.1,1.1,70,0.00,CLR,,0.00,WeatherDisplay:10.37,2013-09-24 15:09:00,
2013-09-24 11:10:00,59.5,49.7,30.15,North,0,0.0,0.0,70,0.00,CLR,,0.00,WeatherDisplay:10.37,2013-09-24 15:10:00,
2013-09-24 11:11:00,59.5,49.7,30.15,North,0,0.0,0.0,70,0.00,CLR,,0.00,WeatherDisplay:10.37,2013-09-24 15:11:00,
2013-09-24 11:13:00,59.3,49.9,30.15,North,0,0.0,0.0,71,0.00,CLR,,0.00,WeatherDisplay:10.37,2013-09-24 15:13:00,
2013-09-24 11:14:00,59.3,49.5,30.15,North,0,0.0,0.0,70,0.00,CLR,,0.00,WeatherDisplay:10.37,2013-09-24 15:14:00,
2013-09-24 11:15:00,59.3,49.5,30.15,ENE,64,0.0,0.0,70,0.00,CLR,,0.00,WeatherDisplay:10.37,2013-09-24 15:15:00,
2013-09-24 11:16:00,59.3,49.5,30.15,ENE,62,0.0,0.0,70,0.00,CLR,,0.00,WeatherDisplay:10.37,2013-09-24 15:16:00,
2013-09-24 11:18:00,59.2,49.8,30.15,ENE,61,3.5,0.0,71,0.00,CLR,,0.00,WeatherDisplay:10.37,2013-09-24 15:18:00,
2013-09-24 11:19:00,59.2,50.2,30.15,ENE,58,0.0,0.0,72,0.00,CLR,,0.00,WeatherDisplay:10.37,2013-09-24 15:19:00,
2013-09-24 11:20:00,59.0,49.6,30.15,ENE,58,0.0,0.0,71,0.00,CLR,,0.00,WeatherDisplay:10.37,2013-09-24 15:20:00,
2013-09-24 11:21:00,59.0,49.6,30.15,ENE,58,0.0,0.0,71,0.00,CLR,,0.00,WeatherDisplay:10.37,2013-09-24 15:21:00,
2013-09-24 11:22:00,59.0,49.6,30.15,ENE,58,0.0,0.0,71,0.00,CLR,,0.00,WeatherDisplay:10.37,2013-09-24 15:22:00,
2013-09-24 11:23:00,59.0,49.6,30.15,ENE,58,0.0,0.0,71,0.00,CLR,,0.00,WeatherDisplay:10.37,2013-09-24 15:23:00,
2013-09-24 11:24:00,59.0,49.2,30.15,ENE,58,0.0,0.0,70,0.00,CLR,,0.00,WeatherDisplay:10.37,2013-09-24 15:24:00,
2013-09-24 11:25:00,58.9,49.1,30.15,ENE,58,0.0,0.0,70,0.00,CLR,,0.00,WeatherDisplay:10.37,2013-09-24 15:25:00,
2013-09-24 11:26:00,58.9,49.1,30.15,ENE,58,0.0,0.0,70,0.00,CLR,,0.00,WeatherDisplay:10.37,2013-09-24 15:26:00,
2013-09-24 11:28:00,58.9,49.5,30.15,ENE,58,0.0,0.0,71,0.00,CLR,,0.00,WeatherDisplay:10.37,2013-09-24 15:28:00,
2013-09-24 11:29:00,59.0,50.0,30.15,ENE,58,0.0,0.0,72,0.00,CLR,,0.00,WeatherDisplay:10.37,2013-09-24 15:29:00,
2013-09-24 11:30:00,59.2,49.8,30.15,ENE,58,0.0,0.9,71,0.00,CLR,,0.00,WeatherDisplay:10.37,2013-09-24 15:30:00,
2013-09-24 11:31:00,59.2,49.4,30.14,ENE,58,3.5,0.0,70,0.00,CLR,,0.00,WeatherDisplay:10.37,2013-09-24 15:31:00,
2013-09-24 11:33:00,59.3,49.9,30.14,ENE,58,1.1,0.0,71,0.00,CLR,,0.00,WeatherDisplay:10.37,2013-09-24 15:33:00,
2013-09-24 11:34:00,59.5,49.7,30.14,NNW,337,1.1,0.0,70,0.00,CLR,,0.00,WeatherDisplay:10.37,2013-09-24 15:34:00,
2013-09-24 11:36:00,59.5,50.1,30.14,NNW,335,0.0,0.0,71,0.00,CLR,,0.00,WeatherDisplay:10.37,2013-09-24 15:36:00,
2013-09-24 11:38:00,59.6,49.8,30.14,North,359,6.0,6.0,70,0.00,CLR,,0.00,WeatherDisplay:10.37,2013-09-24 15:38:00,
2013-09-24 11:39:00,59.5,49.3,30.14,North,359,6.9,6.9,69,0.00,CLR,,0.00,WeatherDisplay:10.37,2013-09-24 15:39:00,
2013-09-24 11:40:00,59.5,49.3,30.14,North,359,4.6,4.6,69,0.00,CLR,,0.00,WeatherDisplay:10.37,2013-09-24 15:40:00,
2013-09-24 11:41:00,59.5,49.3,30.14,North,0,4.0,4.0,69,0.00,CLR,,0.00,WeatherDisplay:10.37,2013-09-24 15:41:00,
2013-09-24 11:44:00,59.3,49.5,30.14,North,0,0.0,0.0,70,0.00,CLR,,0.00,WeatherDisplay:10.37,2013-09-24 15:44:00,
2013-09-24 11:45:00,59.5,49.7,30.14,North,0,0.0,0.0,70,0.00,CLR,,0.00,WeatherDisplay:10.37,2013-09-24 15:45:00,
2013-09-24 11:46:00,59.6,50.2,30.14,North,354,2.3,2.3,71,0.00,CLR,,0.00,WeatherDisplay:10.37,2013-09-24 15:46:00,
2013-09-24 11:49:00,59.6,49.8,30.14,North,354,0.0,0.0,70,0.00,CLR,,0.00,WeatherDisplay:10.37,2013-09-24 15:49:00,
2013-09-24 11:50:00,59.6,49.4,30.14,North,0,6.9,6.9,69,0.00,CLR,,0.00,WeatherDisplay:10.37,2013-09-24 15:50:00,
2013-09-24 11:51:00,59.6,49.8,30.14,North,0,6.9,6.9,70,0.00,CLR,,0.00,WeatherDisplay:10.37,2013-09-24 15:51:00,
2013-09-24 11:52:00,59.8,50.4,30.14,North,0,3.5,3.5,71,0.00,CLR,,0.00,WeatherDisplay:10.37,2013-09-24 15:52:00,
2013-09-24 11:54:00,59.6,49.8,30.14,NNW,337,5.8,5.8,70,0.00,CLR,,0.00,WeatherDisplay:10.37,2013-09-24 15:54:00,
2013-09-24 11:56:00,59.6,49.8,30.14,NNW,337,1.1,1.1,70,0.00,CLR,,0.00,WeatherDisplay:10.37,2013-09-24 15:56:00,
2013-09-24 11:57:00,59.6,49.8,30.14,NNW,337,0.0,0.0,70,0.00,CLR,,0.00,WeatherDisplay:10.37,2013-09-24 15:57:00,
2013-09-24 11:59:00,59.6,49.8,30.14,North,357,1.1,2.0,70,0.00,CLR,,0.00,WeatherDisplay:10.37,2013-09-24 15:59:00,
2013-09-24 12:01:00,59.6,49.4,30.14,North,359,1.1,0.0,69,0.00,CLR,,0.00,WeatherDisplay:10.37,2013-09-24 16:01:00,
2013-09-24 12:02:00,59.6,49.4,30.14,North,357,0.0,0.0,69,0.00,CLR,,0.00,WeatherDisplay:10.37,2013-09-24 16:02:00,
2013-09-24 12:05:00,59.8,50.0,30.14,North,359,0.0,0.0,70,0.00,CLR,,0.00,WeatherDisplay:10.37,2013-09-24 16:05:00,
2013-09-24 12:06:00,59.8,49.6,30.14,North,359,0.0,0.0,69,0.00,CLR,,0.00,WeatherDisplay:10.37,2013-09-24 16:06:00,
2013-09-24 12:07:00,59.8,50.0,30.14,North,354,0.0,0.0,70,0.00,CLR,,0.00,WeatherDisplay:10.37,2013-09-24 16:07:00,
2013-09-24 12:10:00,59.9,49.7,30.14,North,3,1.1,0.0,69,0.00,CLR,,0.00,WeatherDisplay:10.37,2013-09-24 16:10:00,
2013-09-24 12:11:00,59.9,49.7,30.14,North,10,1.1,0.0,69,0.00,CLR,,0.00,WeatherDisplay:10.37,2013-09-24 16:11:00,
2013-09-24 12:12:00,59.9,49.7,30.14,NE,47,2.0,2.0,69,0.00,CLR,,0.00,WeatherDisplay:10.37,2013-09-24 16:12:00,
2013-09-24 12:15:00,59.8,49.6,30.13,NE,47,1.1,0.0,69,0.00,CLR,,0.00,WeatherDisplay:10.37,2013-09-24 16:15:00,
2013-09-24 12:16:00,59.8,50.0,30.13,NE,45,0.0,0.0,70,0.00,CLR,,0.00,WeatherDisplay:10.37,2013-09-24 16:16:00,
2013-09-24 12:17:00,59.9,50.1,30.13,NE,42,0.0,0.0,70,0.00,CLR,,0.00,WeatherDisplay:10.37,2013-09-24 16:17:00,
2013-09-24 12:21:00,60.1,50.3,30.13,North,7,0.0,0.0,70,0.00,CLR,,0.00,WeatherDisplay:10.37,2013-09-24 16:21:00,
2013-09-24 12:22:00,60.1,50.3,30.13,North,1,1.1,1.1,70,0.00,CLR,,0.00,WeatherDisplay:10.37,2013-09-24 16:22:00,
2013-09-24 12:23:00,60.1,50.3,30.13,North,359,4.6,4.6,70,0.00,CLR,,0.00,WeatherDisplay:10.37,2013-09-24 16:23:00,
2013-09-24 12:26:00,59.9,49.7,30.13,North,1,3.0,0.0,69,0.00,CLR,,0.00,WeatherDisplay:10.37,2013-09-24 16:26:00,
2013-09-24 12:27:00,59.9,50.1,30.13,North,0,4.6,4.6,70,0.00,CLR,,0.00,WeatherDisplay:10.37,2013-09-24 16:27:00,
2013-09-24 12:28:00,59.9,50.1,30.12,North,0,3.5,3.5,70,0.00,CLR,,0.00,WeatherDisplay:10.37,2013-09-24 16:28:00,
2013-09-24 12:31:00,60.1,50.7,30.12,North,0,0.0,0.0,71,0.00,CLR,,0.00,WeatherDisplay:10.37,2013-09-24 16:31:00,
2013-09-24 12:32:00,60.1,50.7,30.12,North,4,0.0,0.0,71,0.00,CLR,,0.00,WeatherDisplay:10.37,2013-09-24 16:32:00,
2013-09-24 12:33:00,59.9,50.1,30.12,North,4,0.0,0.0,70,0.00,CLR,,0.00,WeatherDisplay:10.37,2013-09-24 16:33:00,
2013-09-24 12:37:00,60.2,50.8,30.12,SW,236,2.0,2.0,71,0.00,CLR,,0.00,WeatherDisplay:10.37,2013-09-24 16:37:00,
2013-09-24 12:38:00,60.4,51.0,30.12,NNW,340,4.6,4.6,71,0.00,CLR,,0.00,WeatherDisplay:10.37,2013-09-24 16:38:00,
2013-09-24 12:42:00,60.9,51.0,30.12,North,349,0.0,0.5,70,0.00,CLR,,0.00,WeatherDisplay:10.37,2013-09-24 16:42:00,
2013-09-24 12:43:00,60.9,51.0,30.12,North,350,4.6,4.6,70,0.00,CLR,,0.00,WeatherDisplay:10.37,2013-09-24 16:43:00,
2013-09-24 12:44:00,61.0,50.8,30.12,North,350,0.0,0.0,69,0.00,CLR,,0.00,WeatherDisplay:10.37,2013-09-24 16:44:00,
2013-09-24 12:47:00,60.9,51.0,30.12,North,356,4.6,4.6,70,0.00,CLR,,0.00,WeatherDisplay:10.37,2013-09-24 16:47:00,
2013-09-24 12:48:00,60.9,51.0,30.12,NNW,346,5.8,5.8,70,0.00,CLR,,0.00,WeatherDisplay:10.37,2013-09-24 16:48:00,
2013-09-24 12:49:00,60.9,51.0,30.12,NNW,347,5.8,5.8,70,0.00,CLR,,0.00,WeatherDisplay:10.37,2013-09-24 16:49:00,
2013-09-24 12:52:00,60.9,51.0,30.12,North,359,5.8,0.0,70,0.00,CLR,,0.00,WeatherDisplay:10.37,2013-09-24 16:52:00,
2013-09-24 12:53:00,60.9,50.7,30.12,North,4,4.6,4.6,69,0.00,CLR,,0.00,WeatherDisplay:10.37,2013-09-24 16:53:00,
2013-09-24 12:54:00,60.9,50.3,30.12,NE,52,6.9,6.9,68,0.00,CLR,,0.00,WeatherDisplay:10.37,2013-09-24 16:54:00,
2013-09-24 12:57:00,60.7,49.7,30.12,NE,51,0.0,0.0,67,0.00,CLR,,0.00,WeatherDisplay:10.37,2013-09-24 16:57:00,
2013-09-24 12:58:00,60.9,50.7,30.12,NE,51,0.0,0.0,69,0.00,CLR,,0.00,WeatherDisplay:10.37,2013-09-24 16:58:00,
2013-09-24 13:00:00,61.2,50.9,30.11,NNE,32,3.5,0.0,69,0.00,CLR,,0.00,WeatherDisplay:10.37,2013-09-24 17:00:00,
2013-09-24 13:03:00,61.0,49.6,30.11,NNE,32,0.0,0.0,66,0.00,CLR,,0.00,WeatherDisplay:10.37,2013-09-24 17:03:00,
2013-09-24 13:04:00,61.2,50.2,30.11,NNE,32,0.0,0.0,67,0.00,CLR,,0.00,WeatherDisplay:10.37,2013-09-24 17:04:00,
2013-09-24 13:06:00,61.3,50.2,30.11,NNE,32,0.0,0.0,67,0.00,CLR,,0.00,WeatherDisplay:10.37,2013-09-24 17:06:00,
2013-09-24 13:08:00,61.3,49.8,30.11,NNW,339,0.0,0.2,66,0.00,CLR,,0.00,WeatherDisplay:10.37,2013-09-24 17:08:00,
2013-09-24 13:09:00,61.3,50.2,30.11,NNW,339,2.3,2.3,67,0.00,CLR,,0.00,WeatherDisplay:10.37,2013-09-24 17:09:00,
2013-09-24 13:12:00,61.6,50.1,30.11,NNW,340,0.0,0.0,66,0.00,CLR,,0.00,WeatherDisplay:10.37,2013-09-24 17:12:00,
2013-09-24 13:13:00,61.8,50.7,30.10,NE,51,0.0,0.1,67,0.00,CLR,,0.00,WeatherDisplay:10.37,2013-09-24 17:13:00,
2013-09-24 13:14:00,61.8,50.7,30.10,NNE,16,6.0,6.0,67,0.00,CLR,,0.00,WeatherDisplay:10.37,2013-09-24 17:14:00,
2013-09-24 13:17:00,61.6,50.9,30.10,North,359,8.1,8.1,68,0.00,CLR,,0.00,WeatherDisplay:10.37,2013-09-24 17:17:00,
2013-09-24 13:19:00,61.6,51.3,30.10,North,359,6.9,6.9,69,0.00,CLR,,0.00,WeatherDisplay:10.37,2013-09-24 17:19:00,
2013-09-24 13:23:00,61.5,51.2,30.10,NNE,28,2.0,0.0,69,0.00,CLR,,0.00,WeatherDisplay:10.37,2013-09-24 17:23:00,
2013-09-24 13:24:00,61.5,50.8,30.10,North,0,6.0,6.0,68,0.00,CLR,,0.00,WeatherDisplay:10.37,2013-09-24 17:24:00,
2013-09-24 13:28:00,61.2,51.3,30.10,North,4,1.1,1.1,70,0.00,CLR,,0.00,WeatherDisplay:10.37,2013-09-24 17:28:00,
2013-09-24 13:29:00,61.2,51.3,30.10,North,352,9.0,9.0,70,0.00,CLR,,0.00,WeatherDisplay:10.37,2013-09-24 17:29:00,
2013-09-24 13:30:00,61.0,50.8,30.10,North,7,10.4,10.4,69,0.00,CLR,,0.00,WeatherDisplay:10.37,2013-09-24 17:30:00,
2013-09-24 13:33:00,60.7,50.5,30.10,North,0,6.9,6.9,69,0.00,CLR,,0.00,WeatherDisplay:10.37,2013-09-24 17:33:00,
2013-09-24 13:34:00,60.7,50.5,30.09,North,0,4.6,0.0,69,0.00,CLR,,0.00,WeatherDisplay:10.37,2013-09-24 17:34:00,
2013-09-24 13:35:00,60.7,50.5,30.09,North,0,1.1,0.0,69,0.00,CLR,,0.00,WeatherDisplay:10.37,2013-09-24 17:35:00,
2013-09-24 13:38:00,60.9,51.0,30.10,North,1,1.0,1.0,70,0.00,CLR,,0.00,WeatherDisplay:10.37,2013-09-24 17:38:00,
2013-09-24 13:39:00,61.0,51.1,30.09,North,7,2.3,0.0,70,0.00,CLR,,0.00,WeatherDisplay:10.37,2013-09-24 17:39:00,
2013-09-24 13:40:00,61.0,50.8,30.09,North,7,1.1,0.0,69,0.00,CLR,,0.00,WeatherDisplay:10.37,2013-09-24 17:40:00,
2013-09-24 13:43:00,61.3,50.2,30.09,North,0,5.8,5.8,67,0.00,CLR,,0.00,WeatherDisplay:10.37,2013-09-24 17:43:00,
2013-09-24 13:44:00,61.5,50.8,30.09,North,349,1.1,0.0,68,0.00,CLR,,0.00,WeatherDisplay:10.37,2013-09-24 17:44:00,
2013-09-24 13:45:00,61.5,50.8,30.09,North,349,0.0,0.0,68,0.00,CLR,,0.00,WeatherDisplay:10.37,2013-09-24 17:45:00,
2013-09-24 13:46:00,61.5,51.2,30.09,North,354,0.0,0.0,69,0.00,CLR,,0.00,WeatherDisplay:10.37,2013-09-24 17:46:00,
2013-09-24 13:48:00,61.3,50.2,30.09,NW,323,0.0,1.5,67,0.00,CLR,,0.00,WeatherDisplay:10.37,2013-09-24 17:48:00,
2013-09-24 13:49:00,61.0,50.0,30.09,NNW,339,11.5,11.5,67,0.00,CLR,,0.00,WeatherDisplay:10.37,2013-09-24 17:49:00,
2013-09-24 13:50:00,61.0,50.0,30.09,NNW,339,9.2,9.2,67,0.00,CLR,,0.00,WeatherDisplay:10.37,2013-09-24 17:50:00,
2013-09-24 13:51:00,61.0,50.4,30.09,North,0,2.3,2.3,68,0.00,CLR,,0.00,WeatherDisplay:10.37,2013-09-24 17:51:00,
2013-09-24 13:53:00,61.0,51.1,30.09,North,0,5.8,5.8,70,0.00,CLR,,0.00,WeatherDisplay:10.37,2013-09-24 17:53:00,
2013-09-24 13:55:00,61.0,50.8,30.09,North,357,6.9,6.9,69,0.00,CLR,,0.00,WeatherDisplay:10.37,2013-09-24 17:55:00,
2013-09-24 13:56:00,61.0,50.8,30.09,North,357,3.5,3.5,69,0.00,CLR,,0.00,WeatherDisplay:10.37,2013-09-24 17:56:00,
2013-09-24 13:59:00,61.3,51.4,30.09,North,357,0.0,0.0,70,0.00,CLR,,0.00,WeatherDisplay:10.37,2013-09-24 17:59:00,
2013-09-24 14:00:00,61.3,51.4,30.09,North,357,3.0,3.0,70,0.00,CLR,,0.00,WeatherDisplay:10.37,2013-09-24 18:00:00,
2013-09-24 14:01:00,61.6,51.3,30.09,North,357,3.5,0.0,69,0.00,CLR,,0.00,WeatherDisplay:10.37,2013-09-24 18:01:00,
2013-09-24 14:04:00,62.0,51.3,30.09,North,0,0.0,0.0,68,0.00,CLR,,0.00,WeatherDisplay:10.37,2013-09-24 18:04:00,
2013-09-24 14:05:00,62.0,51.3,30.09,ENE,69,6.9,6.9,68,0.00,CLR,,0.00,WeatherDisplay:10.37,2013-09-24 18:05:00,
2013-09-24 14:06:00,61.8,50.7,30.09,North,0,6.9,6.9,67,0.00,CLR,,0.00,WeatherDisplay:10.37,2013-09-24 18:06:00,
2013-09-24 14:09:00,61.3,50.6,30.09,North,8,3.0,3.0,68,0.00,CLR,,0.00,WeatherDisplay:10.37,2013-09-24 18:09:00,
2013-09-24 14:10:00,61.3,50.6,30.09,North,8,5.8,5.8,68,0.00,CLR,,0.00,WeatherDisplay:10.37,2013-09-24 18:10:00,
2013-09-24 14:11:00,61.3,51.0,30.09,North,8,3.5,0.0,69,0.00,CLR,,0.00,WeatherDisplay:10.37,2013-09-24 18:11:00,
2013-09-24 14:15:00,61.3,51.0,30.09,NNW,344,3.5,0.0,69,0.00,CLR,,0.00,WeatherDisplay:10.37,2013-09-24 18:15:00,
2013-09-24 14:16:00,61.3,50.6,30.09,NNW,344,3.5,0.0,68,0.00,CLR,,0.00,WeatherDisplay:10.37,2013-09-24 18:16:00,
2013-09-24 14:20:00,61.3,50.6,30.08,North,359,5.8,5.8,68,0.00,CLR,,0.00,WeatherDisplay:10.37,2013-09-24 18:20:00,
2013-09-24 14:21:00,61.3,51.0,30.08,North,0,3.5,3.5,69,0.00,CLR,,0.00,WeatherDisplay:10.37,2013-09-24 18:21:00,
2013-09-24 14:22:00,61.3,50.6,30.08,NNE,14,8.1,8.1,68,0.00,CLR,,0.00,WeatherDisplay:10.37,2013-09-24 18:22:00,
2013-09-24 14:25:00,61.6,50.9,30.08,North,10,0.0,0.1,68,0.00,CLR,,0.00,WeatherDisplay:10.37,2013-09-24 18:25:00,
2013-09-24 14:26:00,61.6,50.9,30.08,North,11,1.1,1.1,68,0.00,CLR,,0.00,WeatherDisplay:10.37,2013-09-24 18:26:00,
2013-09-24 14:27:00,61.8,51.1,30.08,North,1,0.0,0.0,68,0.00,CLR,,0.00,WeatherDisplay:10.37,2013-09-24 18:27:00,
2013-09-24 14:30:00,62.0,50.9,30.08,North,350,5.8,5.8,67,0.00,CLR,,0.00,WeatherDisplay:10.37,2013-09-24 18:30:00,
2013-09-24 14:31:00,62.0,50.9,30.08,North,352,5.8,5.8,67,0.00,CLR,,0.00,WeatherDisplay:10.37,2013-09-24 18:31:00,
2013-09-24 14:32:00,62.0,50.9,30.08,North,352,1.1,0.0,67,0.00,CLR,,0.00,WeatherDisplay:10.37,2013-09-24 18:32:00,
2013-09-24 14:36:00,62.1,50.6,30.08,ENE,62,8.1,8.1,66,0.00,CLR,,0.00,WeatherDisplay:10.37,2013-09-24 18:36:00,
2013-09-24 14:37:00,62.0,50.5,30.08,NNW,330,8.1,8.1,66,0.00,CLR,,0.00,WeatherDisplay:10.37,2013-09-24 18:37:00,
2013-09-24 14:38:00,62.0,50.5,30.08,NNW,330,8.1,8.1,66,0.00,CLR,,0.00,WeatherDisplay:10.37,2013-09-24 18:38:00,
2013-09-24 14:41:00,62.0,50.9,30.08,North,0,0.0,0.0,67,0.00,CLR,,0.00,WeatherDisplay:10.37,2013-09-24 18:41:00,
2013-09-24 14:42:00,62.1,51.0,30.08,North,0,0.0,0.0,67,0.00,CLR,,0.00,WeatherDisplay:10.37,2013-09-24 18:42:00,
2013-09-24 14:43:00,62.3,51.2,30.08,North,0,0.0,0.0,67,0.00,CLR,,0.00,WeatherDisplay:10.37,2013-09-24 18:43:00,
2013-09-24 14:46:00,62.4,51.3,30.08,NNW,346,5.8,5.8,67,0.00,CLR,,0.00,WeatherDisplay:10.37,2013-09-24 18:46:00,
2013-09-24 14:47:00,62.4,50.9,30.08,North,0,6.9,6.9,66,0.00,CLR,,0.00,WeatherDisplay:10.37,2013-09-24 18:47:00,
2013-09-24 14:48:00,62.3,51.2,30.07,North,0,6.9,6.9,67,0.00,CLR,,0.00,WeatherDisplay:10.37,2013-09-24 18:48:00,
2013-09-24 14:51:00,62.1,51.0,30.07,North,10,2.0,2.0,67,0.00,CLR,,0.00,WeatherDisplay:10.37,2013-09-24 18:51:00,
2013-09-24 14:52:00,62.1,51.0,30.07,North,359,5.8,5.8,67,0.00,CLR,,0.00,WeatherDisplay:10.37,2013-09-24 18:52:00,
2013-09-24 14:53:00,62.1,51.8,30.07,North,357,4.6,4.6,69,0.00,CLR,,0.00,WeatherDisplay:10.37,2013-09-24 18:53:00,
2013-09-24 14:56:00,62.1,51.8,30.07,North,11,5.0,5.0,69,0.00,CLR,,0.00,WeatherDisplay:10.37,2013-09-24 18:56:00,
2013-09-24 14:57:00,62.1,51.8,30.07,North,11,6.9,6.9,69,0.00,CLR,,0.00,WeatherDisplay:10.37,2013-09-24 18:57:00,
2013-09-24 14:58:00,62.3,51.6,30.07,NNE,17,1.1,1.1,68,0.00,CLR,,0.00,WeatherDisplay:10.37,2013-09-24 18:58:00,
2013-09-24 14:59:00,62.3,51.6,30.07,North,7,6.0,6.0,68,0.00,CLR,,0.00,WeatherDisplay:10.37,2013-09-24 18:59:00,
2013-09-24 15:01:00,62.4,51.7,30.07,North,359,0.0,0.0,68,0.00,CLR,,0.00,WeatherDisplay:10.37,2013-09-24 19:01:00,
2013-09-24 15:02:00,62.4,51.7,30.07,North,359,1.1,0.0,68,0.00,CLR,,0.00,WeatherDisplay:10.37,2013-09-24 19:02:00,
2013-09-24 15:03:00,62.6,51.9,30.07,North,359,0.0,0.0,68,0.00,CLR,,0.00,WeatherDisplay:10.37,2013-09-24 19:03:00,
2013-09-24 15:04:00,62.6,51.9,30.07,North,359,0.0,0.0,68,0.00,CLR,,0.00,WeatherDisplay:10.37,2013-09-24 19:04:00,
2013-09-24 15:06:00,62.9,51.8,30.07,North,359,1.1,1.1,67,0.00,CLR,,0.00,WeatherDisplay:10.37,2013-09-24 19:06:00,
2013-09-24 15:08:00,63.1,52.0,30.07,North,0,5.0,5.0,67,0.00,CLR,,0.00,WeatherDisplay:10.37,2013-09-24 19:08:00,
2013-09-24 15:09:00,62.9,51.4,30.07,NNE,17,5.8,5.8,66,0.00,CLR,,0.00,WeatherDisplay:10.37,2013-09-24 19:09:00,
2013-09-24 15:12:00,62.7,51.2,30.07,NE,34,6.9,6.9,66,0.00,CLR,,0.00,WeatherDisplay:10.37,2013-09-24 19:12:00,
2013-09-24 15:13:00,62.6,51.1,30.07,ENE,61,6.9,6.9,66,0.00,CLR,,0.00,WeatherDisplay:10.37,2013-09-24 19:13:00,
2013-09-24 15:14:00,62.4,50.9,30.07,NE,55,6.9,6.9,66,0.00,CLR,,0.00,WeatherDisplay:10.37,2013-09-24 19:14:00,
2013-09-24 15:17:00,62.3,51.2,30.07,North,0,7.0,7.0,67,0.00,CLR,,0.00,WeatherDisplay:10.37,2013-09-24 19:17:00,
2013-09-24 15:18:00,62.3,51.2,30.07,North,359,7.0,7.0,67,0.00,CLR,,0.00,WeatherDisplay:10.37,2013-09-24 19:18:00,
2013-09-24 15:19:00,62.3,50.8,30.07,NNW,328,6.9,6.9,66,0.00,CLR,,0.00,WeatherDisplay:10.37,2013-09-24 19:19:00,
2013-09-24 15:20:00,62.3,51.2,30.07,NNW,342,1.1,0.0,67,0.00,CLR,,0.00,WeatherDisplay:10.37,2013-09-24 19:20:00,
2013-09-24 15:22:00,62.3,50.8,30.07,North,359,0.0,1.4,66,0.00,CLR,,0.00,WeatherDisplay:10.37,2013-09-24 19:22:00,
2013-09-24 15:23:00,62.3,50.8,30.06,North,356,6.9,6.9,66,0.00,CLR,,0.00,WeatherDisplay:10.37,2013-09-24 19:23:00,
2013-09-24 15:24:00,62.3,50.8,30.07,North,359,9.2,9.2,66,0.00,CLR,,0.00,WeatherDisplay:10.37,2013-09-24 19:24:00,
2013-09-24 15:25:00,62.1,50.2,30.07,North,0,8.1,8.1,65,0.00,CLR,,0.00,WeatherDisplay:10.37,2013-09-24 19:25:00,
2013-09-24 15:27:00,61.6,49.7,30.06,North,4,8.1,8.1,65,0.00,CLR,,0.00,WeatherDisplay:10.37,2013-09-24 19:27:00,
2013-09-24 15:28:00,61.5,49.6,30.06,North,4,9.2,9.2,65,0.00,CLR,,0.00,WeatherDisplay:10.37,2013-09-24 19:28:00,
2013-09-24 15:29:00,61.5,50.0,30.06,North,3,5.8,5.8,66,0.00,CLR,,0.00,WeatherDisplay:10.37,2013-09-24 19:29:00,
2013-09-24 15:32:00,61.5,50.4,30.06,NE,35,6.9,6.9,67,0.00,CLR,,0.00,WeatherDisplay:10.37,2013-09-24 19:32:00,
2013-09-24 15:33:00,61.6,49.7,30.06,NNE,31,5.8,5.8,65,0.00,CLR,,0.00,WeatherDisplay:10.37,2013-09-24 19:33:00,
2013-09-24 15:34:00,61.6,49.7,30.06,NNE,16,5.8,5.8,65,0.00,CLR,,0.00,WeatherDisplay:10.37,2013-09-24 19:34:00,
2013-09-24 15:35:00,61.8,49.5,30.06,North,7,3.5,3.5,64,0.00,CLR,,0.00,WeatherDisplay:10.37,2013-09-24 19:35:00,
2013-09-24 15:37:00,61.8,49.5,30.06,North,0,8.1,8.1,64,0.00,CLR,,0.00,WeatherDisplay:10.37,2013-09-24 19:37:00,
2013-09-24 15:38:00,61.8,49.5,30.06,NNE,17,0.0,0.0,64,0.00,CLR,,0.00,WeatherDisplay:10.37,2013-09-24 19:38:00,
2013-09-24 15:40:00,61.8,49.1,30.06,NNE,30,5.8,5.8,63,0.00,CLR,,0.00,WeatherDisplay:10.37,2013-09-24 19:40:00,
2013-09-24 15:42:00,61.6,48.9,30.06,NE,55,3.5,3.5,63,0.00,CLR,,0.00,WeatherDisplay:10.37,2013-09-24 19:42:00,
2013-09-24 15:43:00,61.6,48.9,30.06,NE,38,5.0,5.0,63,0.00,CLR,,0.00,WeatherDisplay:10.37,2013-09-24 19:43:00,
2013-09-24 15:44:00,61.6,48.9,30.06,NNE,32,5.8,5.8,63,0.00,CLR,,0.00,WeatherDisplay:10.37,2013-09-24 19:44:00,
2013-09-24 15:45:00,61.6,48.9,30.06,NNE,21,6.9,6.9,63,0.00,CLR,,0.00,WeatherDisplay:10.37,2013-09-24 19:45:00,
2013-09-24 15:47:00,61.6,49.3,30.06,NE,52,5.8,5.8,64,0.00,CLR,,0.00,WeatherDisplay:10.37,2013-09-24 19:47:00,
2013-09-24 15:48:00,61.6,48.9,30.06,NE,51,0.0,0.0,63,0.00,CLR,,0.00,WeatherDisplay:10.37,2013-09-24 19:48:00,
2013-09-24 15:49:00,61.6,48.9,30.06,NE,51,0.0,0.0,63,0.00,CLR,,0.00,WeatherDisplay:10.37,2013-09-24 19:49:00,
2013-09-24 15:50:00,61.6,48.9,30.06,NNE,32,0.0,0.3,63,0.00,CLR,,0.00,WeatherDisplay:10.37,2013-09-24 19:50:00,
2013-09-24 15:52:00,62.0,49.7,30.06,North,0,5.8,5.8,64,0.00,CLR,,0.00,WeatherDisplay:10.37,2013-09-24 19:52:00,
2013-09-24 15:53:00,62.0,49.3,30.06,NE,55,2.3,0.0,63,0.00,CLR,,0.00,WeatherDisplay:10.37,2013-09-24 19:53:00,
2013-09-24 15:54:00,62.1,49.4,30.06,North,10,2.0,2.0,63,0.00,CLR,,0.00,WeatherDisplay:10.37,2013-09-24 19:54:00,
2013-09-24 15:55:00,62.3,49.5,30.06,NW,325,2.3,2.3,63,0.00,CLR,,0.00,WeatherDisplay:10.37,2013-09-24 19:55:00,
2013-09-24 15:56:00,62.3,49.5,30.06,North,0,4.6,4.6,63,0.00,CLR,,0.00,WeatherDisplay:10.37,2013-09-24 19:56:00,
2013-09-24 15:58:00,62.3,49.1,30.06,North,8,5.8,5.8,62,0.00,CLR,,0.00,WeatherDisplay:10.37,2013-09-24 19:58:00,
2013-09-24 15:59:00,62.3,48.2,30.06,NNE,27,2.3,2.3,60,0.00,CLR,,0.00,WeatherDisplay:10.37,2013-09-24 19:59:00,
2013-09-24 16:00:00,62.3,47.8,30.06,North,7,8.0,8.0,59,0.00,CLR,,0.00,WeatherDisplay:10.37,2013-09-24 20:00:00,
2013-09-24 16:01:00,62.0,47.5,30.06,North,0,10.4,10.4,59,0.00,CLR,,0.00,WeatherDisplay:10.37,2013-09-24 20:01:00,
2013-09-24 16:03:00,62.0,47.5,30.06,NE,54,0.0,0.0,59,0.00,CLR,,0.00,WeatherDisplay:10.37,2013-09-24 20:03:00,
2013-09-24 16:05:00,61.8,46.9,30.06,NE,34,3.5,3.5,58,0.00,CLR,,0.00,WeatherDisplay:10.37,2013-09-24 20:05:00,
2013-09-24 16:06:00,62.0,48.0,30.06,NNE,14,5.8,5.8,60,0.00,CLR,,0.00,WeatherDisplay:10.37,2013-09-24 20:06:00,
2013-09-24 16:08:00,61.8,47.8,30.06,North,0,8.0,8.0,60,0.00,CLR,,0.00,WeatherDisplay:10.37,2013-09-24 20:08:00,
2013-09-24 16:10:00,61.5,47.5,30.06,North,0,8.1,8.1,60,0.00,CLR,,0.00,WeatherDisplay:10.37,2013-09-24 20:10:00,
2013-09-24 16:11:00,61.3,46.8,30.06,North,3,4.6,4.6,59,0.00,CLR,,0.00,WeatherDisplay:10.37,2013-09-24 20:11:00,
2013-09-24 16:12:00,61.3,46.8,30.06,NNE,24,6.9,6.9,59,0.00,CLR,,0.00,WeatherDisplay:10.37,2013-09-24 20:12:00,
2013-09-24 16:13:00,61.2,47.2,30.06,North,7,6.9,6.9,60,0.00,CLR,,0.00,WeatherDisplay:10.37,2013-09-24 20:13:00,
2013-09-24 16:14:00,61.2,47.6,30.06,North,7,4.6,4.6,61,0.00,CLR,,0.00,WeatherDisplay:10.37,2013-09-24 20:14:00,
2013-09-24 16:15:00,61.0,47.0,30.06,North,3,10.4,10.4,60,0.00,CLR,,0.00,WeatherDisplay:10.37,2013-09-24 20:15:00,
2013-09-24 16:16:00,61.0,47.0,30.06,North,0,5.8,5.8,60,0.00,CLR,,0.00,WeatherDisplay:10.37,2013-09-24 20:16:00,
2013-09-24 16:17:00,60.9,47.4,30.06,North,0,6.9,6.9,61,0.00,CLR,,0.00,WeatherDisplay:10.37,2013-09-24 20:17:00,
2013-09-24 16:18:00,60.9,47.8,30.06,North,0,6.9,0.0,62,0.00,CLR,,0.00,WeatherDisplay:10.37,2013-09-24 20:18:00,
2013-09-24 16:19:00,61.0,48.3,30.06,North,359,7.0,7.0,63,0.00,CLR,,0.00,WeatherDisplay:10.37,2013-09-24 20:19:00,
2013-09-24 16:20:00,60.9,47.8,30.06,North,7,8.1,8.1,62,0.00,CLR,,0.00,WeatherDisplay:10.37,2013-09-24 20:20:00,
2013-09-24 16:21:00,60.9,47.8,30.06,North,0,6.9,6.9,62,0.00,CLR,,0.00,WeatherDisplay:10.37,2013-09-24 20:21:00,
2013-09-24 16:23:00,61.0,47.9,30.06,NNE,27,0.0,0.0,62,0.00,CLR,,0.00,WeatherDisplay:10.37,2013-09-24 20:23:00,
2013-09-24 16:24:00,61.2,48.5,30.06,NNE,21,3.5,3.5,63,0.00,CLR,,0.00,WeatherDisplay:10.37,2013-09-24 20:24:00,
2013-09-24 16:25:00,61.2,48.1,30.06,NNE,13,7.0,7.0,62,0.00,CLR,,0.00,WeatherDisplay:10.37,2013-09-24 20:25:00,
2013-09-24 16:26:00,61.2,47.6,30.06,NNE,32,8.1,8.1,61,0.00,CLR,,0.00,WeatherDisplay:10.37,2013-09-24 20:26:00,
2013-09-24 16:28:00,61.2,47.2,30.06,NNE,16,4.6,4.6,60,0.00,CLR,,0.00,WeatherDisplay:10.37,2013-09-24 20:28:00,
2013-09-24 16:29:00,61.2,47.2,30.06,NNE,16,3.5,3.5,60,0.00,CLR,,0.00,WeatherDisplay:10.37,2013-09-24 20:29:00,
2013-09-24 16:30:00,61.3,47.7,30.06,NE,37,4.6,4.6,61,0.00,CLR,,0.00,WeatherDisplay:10.37,2013-09-24 20:30:00,
2013-09-24 16:31:00,61.3,47.7,30.05,NE,48,4.6,4.6,61,0.00,CLR,,0.00,WeatherDisplay:10.37,2013-09-24 20:31:00,
2013-09-24 16:34:00,61.5,48.4,30.05,NE,45,2.3,2.3,62,0.00,CLR,,0.00,WeatherDisplay:10.37,2013-09-24 20:34:00,
2013-09-24 16:35:00,61.5,48.4,30.05,NE,38,2.3,2.3,62,0.00,CLR,,0.00,WeatherDisplay:10.37,2013-09-24 20:35:00,
2013-09-24 16:36:00,61.5,47.9,30.05,NE,38,0.0,0.0,61,0.00,CLR,,0.00,WeatherDisplay:10.37,2013-09-24 20:36:00,
2013-09-24 16:39:00,61.2,48.1,30.05,North,4,6.9,6.9,62,0.00,CLR,,0.00,WeatherDisplay:10.37,2013-09-24 20:39:00,
2013-09-24 16:40:00,61.2,47.6,30.05,North,359,8.1,8.1,61,0.00,CLR,,0.00,WeatherDisplay:10.37,2013-09-24 20:40:00,
2013-09-24 16:41:00,61.0,47.4,30.05,NNE,18,6.9,6.9,61,0.00,CLR,,0.00,WeatherDisplay:10.37,2013-09-24 20:41:00,
2013-09-24 16:42:00,60.9,47.8,30.05,NNE,24,4.6,4.6,62,0.00,CLR,,0.00,WeatherDisplay:10.37,2013-09-24 20:42:00,
2013-09-24 16:44:00,60.7,47.2,30.05,North,1,1.1,1.1,61,0.00,CLR,,0.00,WeatherDisplay:10.37,2013-09-24 20:44:00,
2013-09-24 16:45:00,60.7,46.7,30.05,NNE,21,5.8,5.8,60,0.00,CLR,,0.00,WeatherDisplay:10.37,2013-09-24 20:45:00,
2013-09-24 16:46:00,60.7,46.7,30.05,NNE,25,5.8,5.8,60,0.00,CLR,,0.00,WeatherDisplay:10.37,2013-09-24 20:46:00,
2013-09-24 16:47:00,60.7,46.7,30.05,North,8,3.5,3.5,60,0.00,CLR,,0.00,WeatherDisplay:10.37,2013-09-24 20:47:00,
2013-09-24 16:49:00,60.7,46.7,30.05,North,0,6.9,6.9,60,0.00,CLR,,0.00,WeatherDisplay:10.37,2013-09-24 20:49:00,
2013-09-24 16:50:00,60.7,46.7,30.05,North,0,6.0,6.0,60,0.00,CLR,,0.00,WeatherDisplay:10.37,2013-09-24 20:50:00,
2013-09-24 16:51:00,60.7,47.2,30.05,North,3,5.8,5.8,61,0.00,CLR,,0.00,WeatherDisplay:10.37,2013-09-24 20:51:00,
2013-09-24 16:52:00,60.7,47.6,30.05,North,0,5.8,5.8,62,0.00,CLR,,0.00,WeatherDisplay:10.37,2013-09-24 20:52:00,
2013-09-24 16:54:00,60.9,48.6,30.05,North,357,4.6,0.0,64,0.00,CLR,,0.00,WeatherDisplay:10.37,2013-09-24 20:54:00,
2013-09-24 16:55:00,60.9,48.6,30.05,North,357,0.0,0.0,64,0.00,CLR,,0.00,WeatherDisplay:10.37,2013-09-24 20:55:00,
2013-09-24 16:56:00,60.9,48.6,30.05,North,0,2.3,2.3,64,0.00,CLR,,0.00,WeatherDisplay:10.37,2013-09-24 20:56:00,
2013-09-24 16:58:00,61.0,48.7,30.05,North,0,1.1,1.1,64,0.00,CLR,,0.00,WeatherDisplay:10.37,2013-09-24 20:58:00,
2013-09-24 17:00:00,61.0,48.7,30.04,East,80,2.3,2.3,64,0.00,CLR,,0.00,WeatherDisplay:10.37,2013-09-24 21:00:00,
2013-09-24 17:01:00,61.0,48.7,30.04,NE,44,3.5,3.5,64,0.00,CLR,,0.00,WeatherDisplay:10.37,2013-09-24 21:01:00,
2013-09-24 17:03:00,61.0,48.7,30.04,NE,47,2.3,0.0,64,0.00,CLR,,0.00,WeatherDisplay:10.37,2013-09-24 21:03:00,
2013-09-24 17:05:00,61.2,48.9,30.04,NE,35,3.5,3.5,64,0.00,CLR,,0.00,WeatherDisplay:10.37,2013-09-24 21:05:00,
2013-09-24 17:06:00,61.2,48.9,30.05,North,359,4.6,4.6,64,0.00,CLR,,0.00,WeatherDisplay:10.37,2013-09-24 21:06:00,
2013-09-24 17:07:00,61.2,48.9,30.05,North,1,6.9,6.9,64,0.00,CLR,,0.00,WeatherDisplay:10.37,2013-09-24 21:07:00,
2013-09-24 17:08:00,61.0,48.3,30.05,North,0,5.8,5.8,63,0.00,CLR,,0.00,WeatherDisplay:10.37,2013-09-24 21:08:00,
2013-09-24 17:10:00,61.0,48.7,30.05,NNE,20,5.0,5.0,64,0.00,CLR,,0.00,WeatherDisplay:10.37,2013-09-24 21:10:00,
2013-09-24 17:11:00,61.0,48.3,30.05,NNE,18,4.6,4.6,63,0.00,CLR,,0.00,WeatherDisplay:10.37,2013-09-24 21:11:00,
2013-09-24 17:12:00,60.9,47.8,30.05,NNE,17,4.6,4.6,62,0.00,CLR,,0.00,WeatherDisplay:10.37,2013-09-24 21:12:00,
2013-09-24 17:13:00,60.9,48.2,30.05,NE,41,0.0,0.0,63,0.00,CLR,,0.00,WeatherDisplay:10.37,2013-09-24 21:13:00,
2013-09-24 17:15:00,60.7,47.6,30.05,NE,52,0.0,1.6,62,0.00,CLR,,0.00,WeatherDisplay:10.37,2013-09-24 21:15:00,
2013-09-24 17:16:00,60.7,47.6,30.05,NE,51,3.5,3.5,62,0.00,CLR,,0.00,WeatherDisplay:10.37,2013-09-24 21:16:00,
2013-09-24 17:17:00,60.7,47.6,30.05,NE,52,0.0,0.0,62,0.00,CLR,,0.00,WeatherDisplay:10.37,2013-09-24 21:17:00,
2013-09-24 17:19:00,60.9,48.2,30.05,NNE,20,0.0,0.0,63,0.00,CLR,,0.00,WeatherDisplay:10.37,2013-09-24 21:19:00,
2013-09-24 17:21:00,60.7,47.6,30.05,North,4,4.6,4.6,62,0.00,CLR,,0.00,WeatherDisplay:10.37,2013-09-24 21:21:00,
2013-09-24 17:22:00,60.7,47.2,30.05,NNE,30,0.0,0.0,61,0.00,CLR,,0.00,WeatherDisplay:10.37,2013-09-24 21:22:00,
2013-09-24 17:24:00,60.7,47.6,30.05,NE,38,0.0,0.0,62,0.00,CLR,,0.00,WeatherDisplay:10.37,2013-09-24 21:24:00,
2013-09-24 17:26:00,60.9,48.2,30.05,North,8,6.0,6.0,63,0.00,CLR,,0.00,WeatherDisplay:10.37,2013-09-24 21:26:00,
2013-09-24 17:27:00,60.7,48.0,30.05,North,8,5.8,5.8,63,0.00,CLR,,0.00,WeatherDisplay:10.37,2013-09-24 21:27:00,
2013-09-24 17:29:00,60.9,47.4,30.05,NNE,16,0.0,0.0,61,0.00,CLR,,0.00,WeatherDisplay:10.37,2013-09-24 21:29:00,
2013-09-24 17:31:00,61.0,47.9,30.05,NNE,16,0.0,0.0,62,0.00,CLR,,0.00,WeatherDisplay:10.37,2013-09-24 21:31:00,
2013-09-24 17:32:00,61.0,47.4,30.05,North,6,2.3,2.3,61,0.00,CLR,,0.00,WeatherDisplay:10.37,2013-09-24 21:32:00,
2013-09-24 17:33:00,61.2,47.6,30.05,North,4,1.1,0.0,61,0.00,CLR,,0.00,WeatherDisplay:10.37,2013-09-24 21:33:00,
2013-09-24 17:36:00,61.0,47.4,30.05,North,1,4.6,0.0,61,0.00,CLR,,0.00,WeatherDisplay:10.37,2013-09-24 21:36:00,
2013-09-24 17:37:00,61.0,47.9,30.05,North,1,0.0,0.0,62,0.00,CLR,,0.00,WeatherDisplay:10.37,2013-09-24 21:37:00,
2013-09-24 17:38:00,61.0,47.9,30.05,North,1,0.0,0.0,62,0.00,CLR,,0.00,WeatherDisplay:10.37,2013-09-24 21:38:00,
2013-09-24 17:41:00,60.7,48.0,30.05,NE,34,0.0,0.0,63,0.00,CLR,,0.00,WeatherDisplay:10.37,2013-09-24 21:41:00,
2013-09-24 17:42:00,60.7,48.0,30.05,NE,34,0.0,0.0,63,0.00,CLR,,0.00,WeatherDisplay:10.37,2013-09-24 21:42:00,
2013-09-24 17:43:00,60.9,48.6,30.05,NNE,32,1.0,1.0,64,0.00,CLR,,0.00,WeatherDisplay:10.37,2013-09-24 21:43:00,
2013-09-24 17:46:00,60.7,48.0,30.05,North,0,2.3,0.0,63,0.00,CLR,,0.00,WeatherDisplay:10.37,2013-09-24 21:46:00,
2013-09-24 17:47:00,60.7,48.4,30.05,North,1,0.0,0.0,64,0.00,CLR,,0.00,WeatherDisplay:10.37,2013-09-24 21:47:00,
2013-09-24 17:48:00,60.7,48.4,30.05,North,0,0.0,0.0,64,0.00,CLR,,0.00,WeatherDisplay:10.37,2013-09-24 21:48:00,
2013-09-24 17:49:00,60.5,47.8,30.05,North,0,0.0,0.0,63,0.00,CLR,,0.00,WeatherDisplay:10.37,2013-09-24 21:49:00,
2013-09-24 17:51:00,60.5,48.3,30.05,North,0,0.0,0.1,64,0.00,CLR,,0.00,WeatherDisplay:10.37,2013-09-24 21:51:00,
2013-09-24 17:53:00,60.7,48.4,30.05,North,0,3.5,3.5,64,0.00,CLR,,0.00,WeatherDisplay:10.37,2013-09-24 21:53:00,
2013-09-24 17:54:00,60.5,48.3,30.05,North,0,3.5,3.5,64,0.00,CLR,,0.00,WeatherDisplay:10.37,2013-09-24 21:54:00,
2013-09-24 17:56:00,60.5,48.3,30.05,North,6,0.0,0.0,64,0.00,CLR,,0.00,WeatherDisplay:10.37,2013-09-24 21:56:00,
2013-09-24 17:58:00,60.5,47.8,30.05,North,6,0.0,0.0,63,0.00,CLR,,0.00,WeatherDisplay:10.37,2013-09-24 21:58:00,
2013-09-24 17:59:00,60.7,48.0,30.05,North,6,0.0,0.0,63,0.00,CLR,,0.00,WeatherDisplay:10.37,2013-09-24 21:59:00,
2013-09-24 18:02:00,60.7,48.4,30.05,North,6,0.0,0.0,64,0.00,CLR,,0.00,WeatherDisplay:10.37,2013-09-24 22:02:00,
2013-09-24 18:03:00,60.5,48.7,30.05,NNE,14,1.1,0.0,65,0.00,CLR,,0.00,WeatherDisplay:10.37,2013-09-24 22:03:00,
2013-09-24 18:04:00,60.5,48.3,30.05,NNE,14,1.1,0.0,64,0.00,CLR,,0.00,WeatherDisplay:10.37,2013-09-24 22:04:00,
2013-09-24 18:05:00,60.4,48.2,30.05,NNE,14,0.0,0.0,64,0.00,CLR,,0.00,WeatherDisplay:10.37,2013-09-24 22:05:00,
2013-09-24 18:07:00,60.4,48.6,30.05,NNE,14,0.0,0.0,65,0.00,CLR,,0.00,WeatherDisplay:10.37,2013-09-24 22:07:00,
2013-09-24 18:08:00,60.4,49.0,30.05,NNE,14,0.0,0.0,66,0.00,CLR,,0.00,WeatherDisplay:10.37,2013-09-24 22:08:00,
2013-09-24 18:09:00,60.4,49.4,30.05,NNE,14,0.0,0.0,67,0.00,CLR,,0.00,WeatherDisplay:10.37,2013-09-24 22:09:00,
2013-09-24 18:10:00,60.4,49.0,30.05,NNE,14,1.1,0.0,66,0.00,CLR,,0.00,WeatherDisplay:10.37,2013-09-24 22:10:00,
2013-09-24 18:12:00,60.2,48.4,30.05,North,10,3.5,3.5,65,0.00,CLR,,0.00,WeatherDisplay:10.37,2013-09-24 22:12:00,
2013-09-24 18:13:00,60.2,48.4,30.05,North,10,2.3,0.0,65,0.00,CLR,,0.00,WeatherDisplay:10.37,2013-09-24 22:13:00,
2013-09-24 18:14:00,60.2,48.8,30.05,North,10,0.0,0.0,66,0.00,CLR,,0.00,WeatherDisplay:10.37,2013-09-24 22:14:00,
2013-09-24 18:15:00,60.2,48.8,30.05,North,10,0.0,0.0,66,0.00,CLR,,0.00,WeatherDisplay:10.37,2013-09-24 22:15:00,
2013-09-24 18:17:00,60.1,48.7,30.05,North,10,0.0,1.7,66,0.00,CLR,,0.00,WeatherDisplay:10.37,2013-09-24 22:17:00,
2013-09-24 18:19:00,60.1,48.7,30.05,North,10,0.0,0.0,66,0.00,CLR,,0.00,WeatherDisplay:10.37,2013-09-24 22:19:00,
2013-09-24 18:20:00,59.9,48.5,30.05,North,10,0.0,0.0,66,0.00,CLR,,0.00,WeatherDisplay:10.37,2013-09-24 22:20:00,
2013-09-24 18:22:00,59.8,48.4,30.05,North,10,2.3,0.0,66,0.00,CLR,,0.00,WeatherDisplay:10.37,2013-09-24 22:22:00,
2013-09-24 18:24:00,59.6,48.6,30.05,North,10,0.0,0.0,67,0.00,CLR,,0.00,WeatherDisplay:10.37,2013-09-24 22:24:00,
2013-09-24 18:25:00,59.6,48.6,30.05,North,11,0.0,0.0,67,0.00,CLR,,0.00,WeatherDisplay:10.37,2013-09-24 22:25:00,
2013-09-24 18:26:00,59.6,48.6,30.05,NNE,17,0.0,0.0,67,0.00,CLR,,0.00,WeatherDisplay:10.37,2013-09-24 22:26:00,
2013-09-24 18:27:00,59.6,48.6,30.05,NE,48,0.0,0.0,67,0.00,CLR,,0.00,WeatherDisplay:10.37,2013-09-24 22:27:00,
2013-09-24 18:29:00,59.5,48.5,30.05,NE,45,0.0,0.0,67,0.00,CLR,,0.00,WeatherDisplay:10.37,2013-09-24 22:29:00,
2013-09-24 18:30:00,59.3,48.3,30.05,NE,45,0.0,0.0,67,0.00,CLR,,0.00,WeatherDisplay:10.37,2013-09-24 22:30:00,
2013-09-24 18:31:00,59.3,48.3,30.05,NE,45,0.0,0.0,67,0.00,CLR,,0.00,WeatherDisplay:10.37,2013-09-24 22:31:00,
2013-09-24 18:32:00,59.3,48.3,30.05,NE,45,0.0,0.0,67,0.00,CLR,,0.00,WeatherDisplay:10.37,2013-09-24 22:32:00,
2013-09-24 18:34:00,59.3,48.7,30.05,NE,45,0.0,0.0,68,0.00,CLR,,0.00,WeatherDisplay:10.37,2013-09-24 22:34:00,
2013-09-24 18:35:00,59.2,48.6,30.05,NE,45,0.0,0.0,68,0.00,CLR,,0.00,WeatherDisplay:10.37,2013-09-24 22:35:00,
2013-09-24 18:36:00,59.2,48.2,30.05,NNE,18,0.0,0.0,67,0.00,CLR,,0.00,WeatherDisplay:10.37,2013-09-24 22:36:00,
2013-09-24 18:37:00,58.9,48.4,30.05,NNE,18,0.0,0.0,68,0.00,CLR,,0.00,WeatherDisplay:10.37,2013-09-24 22:37:00,
2013-09-24 18:39:00,58.9,48.4,30.05,NNE,21,0.0,0.0,68,0.00,CLR,,0.00,WeatherDisplay:10.37,2013-09-24 22:39:00,
2013-09-24 18:40:00,58.9,48.4,30.05,NNE,21,0.0,0.0,68,0.00,CLR,,0.00,WeatherDisplay:10.37,2013-09-24 22:40:00,
2013-09-24 18:41:00,58.9,48.4,30.05,NNE,21,0.0,0.0,68,0.00,CLR,,0.00,WeatherDisplay:10.37,2013-09-24 22:41:00,
2013-09-24 18:43:00,58.7,48.2,30.05,NNE,21,0.0,0.0,68,0.00,CLR,,0.00,WeatherDisplay:10.37,2013-09-24 22:43:00,
2013-09-24 18:44:00,58.6,48.1,30.05,NNE,21,0.0,0.0,68,0.00,CLR,,0.00,WeatherDisplay:10.37,2013-09-24 22:44:00,
2013-09-24 18:45:00,58.6,48.1,30.05,NNE,21,0.0,0.0,68,0.00,CLR,,0.00,WeatherDisplay:10.37,2013-09-24 22:45:00,
2013-09-24 18:46:00,58.4,47.9,30.05,NNE,21,0.0,0.0,68,0.00,CLR,,0.00,WeatherDisplay:10.37,2013-09-24 22:46:00,
2013-09-24 18:47:00,58.4,48.3,30.05,NNE,21,0.0,0.0,69,0.00,CLR,,0.00,WeatherDisplay:10.37,2013-09-24 22:47:00,
2013-09-24 18:48:00,58.3,48.2,30.05,NNE,21,0.0,0.0,69,0.00,CLR,,0.00,WeatherDisplay:10.37,2013-09-24 22:48:00,
2013-09-24 18:49:00,58.1,48.4,30.05,NNE,21,0.0,0.0,70,0.00,CLR,,0.00,WeatherDisplay:10.37,2013-09-24 22:49:00,
2013-09-24 18:50:00,58.1,48.4,30.05,NNE,20,0.0,0.0,70,0.00,CLR,,0.00,WeatherDisplay:10.37,2013-09-24 22:50:00,
2013-09-24 18:51:00,58.0,48.3,30.05,NNE,20,0.0,0.0,70,0.00,CLR,,0.00,WeatherDisplay:10.37,2013-09-24 22:51:00,
2013-09-24 18:52:00,58.0,48.3,30.05,NNE,21,0.0,0.0,70,0.00,CLR,,0.00,WeatherDisplay:10.37,2013-09-24 22:52:00,
2013-09-24 18:53:00,58.0,48.6,30.05,NNE,21,0.0,0.0,71,0.00,CLR,,0.00,WeatherDisplay:10.37,2013-09-24 22:53:00,
2013-09-24 18:54:00,57.8,48.5,30.05,NNE,20,0.0,0.0,71,0.00,CLR,,0.00,WeatherDisplay:10.37,2013-09-24 22:54:00,
2013-09-24 18:55:00,57.6,48.3,30.05,NNE,20,0.0,0.0,71,0.00,CLR,,0.00,WeatherDisplay:10.37,2013-09-24 22:55:00,
2013-09-24 18:56:00,57.6,48.3,30.05,NNE,20,0.0,0.0,71,0.00,CLR,,0.00,WeatherDisplay:10.37,2013-09-24 22:56:00,
2013-09-24 18:57:00,57.6,48.6,30.05,NNE,20,0.0,0.0,72,0.00,CLR,,0.00,WeatherDisplay:10.37,2013-09-24 22:57:00,
2013-09-24 18:58:00,57.5,48.5,30.04,NNE,21,0.0,0.0,72,0.00,CLR,,0.00,WeatherDisplay:10.37,2013-09-24 22:58:00,
2013-09-24 18:59:00,57.5,48.5,30.05,NNE,21,0.0,0.0,72,0.00,CLR,,0.00,WeatherDisplay:10.37,2013-09-24 22:59:00,
2013-09-24 19:01:00,57.3,48.3,30.05,NNE,21,0.0,0.0,72,0.00,CLR,,0.00,WeatherDisplay:10.37,2013-09-24 23:01:00,
2013-09-24 19:03:00,57.3,48.7,30.05,NNE,21,0.0,0.0,73,0.00,CLR,,0.00,WeatherDisplay:10.37,2013-09-24 23:03:00,
2013-09-24 19:05:00,57.3,49.1,30.05,NNE,21,0.0,0.0,74,0.00,CLR,,0.00,WeatherDisplay:10.37,2013-09-24 23:05:00,
2013-09-24 19:06:00,57.3,49.1,30.05,NNE,21,0.0,0.0,74,0.00,CLR,,0.00,WeatherDisplay:10.37,2013-09-24 23:06:00,
2013-09-24 19:07:00,57.3,49.1,30.05,NNE,21,0.0,0.0,74,0.00,CLR,,0.00,WeatherDisplay:10.37,2013-09-24 23:07:00,
2013-09-24 19:08:00,57.2,49.0,30.05,NNE,21,0.0,0.0,74,0.00,CLR,,0.00,WeatherDisplay:10.37,2013-09-24 23:08:00,
2013-09-24 19:10:00,57.2,49.0,30.05,NNE,21,0.0,0.0,74,0.00,CLR,,0.00,WeatherDisplay:10.37,2013-09-24 23:10:00,
2013-09-24 19:12:00,57.0,48.8,30.04,NNE,21,0.0,0.0,74,0.00,CLR,,0.00,WeatherDisplay:10.37,2013-09-24 23:12:00,
2013-09-24 19:13:00,56.9,49.1,30.04,NNE,21,0.0,0.0,75,0.00,CLR,,0.00,WeatherDisplay:10.37,2013-09-24 23:13:00,
2013-09-24 19:14:00,56.7,49.2,30.04,NNE,21,0.0,0.0,76,0.00,CLR,,0.00,WeatherDisplay:10.37,2013-09-24 23:14:00,
2013-09-24 19:15:00,56.7,49.2,30.04,NNE,21,0.0,0.0,76,0.00,CLR,,0.00,WeatherDisplay:10.37,2013-09-24 23:15:00,
2013-09-24 19:17:00,56.5,49.0,30.04,NNE,21,0.0,0.0,76,0.00,CLR,,0.00,WeatherDisplay:10.37,2013-09-24 23:17:00,
2013-09-24 19:18:00,56.3,49.2,30.04,NNE,21,0.0,0.0,77,0.00,CLR,,0.00,WeatherDisplay:10.37,2013-09-24 23:18:00,
2013-09-24 19:19:00,56.2,49.1,30.04,NNE,21,0.0,0.0,77,0.00,CLR,,0.00,WeatherDisplay:10.37,2013-09-24 23:19:00,
2013-09-24 19:20:00,56.0,49.2,30.04,NNE,21,0.0,0.0,78,0.00,CLR,,0.00,WeatherDisplay:10.37,2013-09-24 23:20:00,
2013-09-24 19:22:00,55.7,49.3,30.04,NNE,21,0.0,0.0,79,0.00,CLR,,0.00,WeatherDisplay:10.37,2013-09-24 23:22:00,
2013-09-24 19:23:00,55.6,49.2,30.04,NNE,21,0.0,0.0,79,0.00,CLR,,0.00,WeatherDisplay:10.37,2013-09-24 23:23:00,
2013-09-24 19:24:00,55.4,49.3,30.04,NNE,21,0.0,0.0,80,0.00,CLR,,0.00,WeatherDisplay:10.37,2013-09-24 23:24:00,
2013-09-24 19:25:00,55.3,49.6,30.04,NNE,21,0.0,0.0,81,0.00,CLR,,0.00,WeatherDisplay:10.37,2013-09-24 23:25:00,
2013-09-24 19:26:00,55.1,49.4,30.04,NNE,21,0.0,0.0,81,0.00,CLR,,0.00,WeatherDisplay:10.37,2013-09-24 23:26:00,
2013-09-24 19:28:00,54.8,49.7,30.04,NNE,21,0.0,0.0,83,0.00,CLR,,0.00,WeatherDisplay:10.37,2013-09-24 23:28:00,
2013-09-24 19:29:00,54.7,49.6,30.04,NNE,20,0.0,0.0,83,0.00,CLR,,0.00,WeatherDisplay:10.37,2013-09-24 23:29:00,
2013-09-24 19:30:00,54.5,49.8,30.04,NNE,21,0.0,0.0,84,0.00,CLR,,0.00,WeatherDisplay:10.37,2013-09-24 23:30:00,
2013-09-24 19:31:00,54.4,49.7,30.04,NNE,21,0.0,0.0,84,0.00,CLR,,0.00,WeatherDisplay:10.37,2013-09-24 23:31:00,
2013-09-24 19:33:00,54.2,49.8,30.04,NNE,21,0.0,0.0,85,0.00,CLR,,0.00,WeatherDisplay:10.37,2013-09-24 23:33:00,
2013-09-24 19:34:00,54.1,50.0,30.04,NNE,21,0.0,0.0,86,0.00,CLR,,0.00,WeatherDisplay:10.37,2013-09-24 23:34:00,
2013-09-24 19:35:00,54.1,50.0,30.04,NNE,21,0.0,0.0,86,0.00,CLR,,0.00,WeatherDisplay:10.37,2013-09-24 23:35:00,
2013-09-24 19:36:00,53.9,49.8,30.04,NNE,21,0.0,0.0,86,0.00,CLR,,0.00,WeatherDisplay:10.37,2013-09-24 23:36:00,
2013-09-24 19:37:00,53.8,49.7,30.04,NNE,21,0.0,0.0,86,0.00,CLR,,0.00,WeatherDisplay:10.37,2013-09-24 23:37:00,
2013-09-24 19:38:00,53.6,49.8,30.04,NNE,21,0.0,0.0,87,0.00,CLR,,0.00,WeatherDisplay:10.37,2013-09-24 23:38:00,
2013-09-24 19:39:00,53.6,49.8,30.04,NNE,21,0.0,0.0,87,0.00,CLR,,0.00,WeatherDisplay:10.37,2013-09-24 23:39:00,
2013-09-24 19:40:00,53.3,49.8,30.04,NNE,21,0.0,0.0,88,0.00,CLR,,0.00,WeatherDisplay:10.37,2013-09-24 23:40:00,
2013-09-24 19:41:00,53.3,49.8,30.04,NNE,21,0.0,0.0,88,0.00,CLR,,0.00,WeatherDisplay:10.37,2013-09-24 23:41:00,
2013-09-24 19:42:00,53.2,49.7,30.04,NNE,21,0.0,0.0,88,0.00,CLR,,0.00,WeatherDisplay:10.37,2013-09-24 23:42:00,
2013-09-24 19:43:00,53.1,49.9,30.04,NNE,21,0.0,0.0,89,0.00,CLR,,0.00,WeatherDisplay:10.37,2013-09-24 23:43:00,
2013-09-24 19:44:00,53.1,49.9,30.04,NNE,21,0.0,0.0,89,0.00,CLR,,0.00,WeatherDisplay:10.37,2013-09-24 23:44:00,
2013-09-24 19:45:00,52.9,49.7,30.04,NNE,21,0.0,0.0,89,0.00,CLR,,0.00,WeatherDisplay:10.37,2013-09-24 23:45:00,
2013-09-24 19:46:00,52.9,49.7,30.04,NNE,21,0.0,0.0,89,0.00,CLR,,0.00,WeatherDisplay:10.37,2013-09-24 23:46:00,
2013-09-24 19:47:00,52.8,49.6,30.04,NNE,21,0.0,0.0,89,0.00,CLR,,0.00,WeatherDisplay:10.37,2013-09-24 23:47:00,
2013-09-24 19:48:00,52.8,49.6,30.04,NNE,21,0.0,0.0,89,0.00,CLR,,0.00,WeatherDisplay:10.37,2013-09-24 23:48:00,
2013-09-24 19:49:00,52.6,49.8,30.04,NNE,21,0.0,0.0,90,0.00,CLR,,0.00,WeatherDisplay:10.37,2013-09-24 23:49:00,
2013-09-24 19:50:00,52.6,49.8,30.04,NNE,21,0.0,0.0,90,0.00,CLR,,0.00,WeatherDisplay:10.37,2013-09-24 23:50:00,
2013-09-24 19:51:00,52.6,49.8,30.04,NNE,21,0.0,0.0,90,0.00,CLR,,0.00,WeatherDisplay:10.37,2013-09-24 23:51:00,
2013-09-24 19:52:00,52.5,49.4,30.04,NNE,21,0.0,0.0,89,0.00,CLR,,0.00,WeatherDisplay:10.37,2013-09-24 23:52:00,
2013-09-24 19:53:00,52.5,49.4,30.04,NNE,21,0.0,0.0,89,0.00,CLR,,0.00,WeatherDisplay:10.37,2013-09-24 23:53:00,
2013-09-24 19:54:00,52.5,49.4,30.04,NNE,21,0.0,0.0,89,0.00,CLR,,0.00,WeatherDisplay:10.37,2013-09-24 23:54:00,
2013-09-24 19:56:00,52.3,49.2,30.04,NNE,21,0.0,0.0,89,0.00,CLR,,0.00,WeatherDisplay:10.37,2013-09-24 23:56:00,
2013-09-24 19:57:00,52.2,49.1,30.04,NNE,21,0.0,0.0,89,0.00,CLR,,0.00,WeatherDisplay:10.37,2013-09-24 23:57:00,
2013-09-24 19:59:00,52.0,49.2,30.04,NNE,23,0.0,0.0,90,0.00,CLR,,0.00,WeatherDisplay:10.37,2013-09-24 23:59:00,
2013-09-24 20:01:00,51.9,49.1,30.04,NNE,23,0.0,0.0,90,0.00,CLR,,0.00,WeatherDisplay:10.37,2013-09-25 00:01:00,
2013-09-24 20:02:00,51.7,49.2,30.04,NNE,23,0.0,0.0,91,0.00,CLR,,0.00,WeatherDisplay:10.37,2013-09-25 00:02:00,
2013-09-24 20:04:00,51.4,48.9,30.05,NNE,23,0.0,0.0,91,0.00,CLR,,0.00,WeatherDisplay:10.37,2013-09-25 00:04:00,
2013-09-24 20:06:00,51.3,49.1,30.04,NNE,23,0.0,0.0,92,0.00,CLR,,0.00,WeatherDisplay:10.37,2013-09-25 00:06:00,
2013-09-24 20:07:00,51.3,49.1,30.04,NNE,23,0.0,0.0,92,0.00,CLR,,0.00,WeatherDisplay:10.37,2013-09-25 00:07:00,
2013-09-24 20:09:00,51.0,48.8,30.04,NNE,32,0.0,0.0,92,0.00,CLR,,0.00,WeatherDisplay:10.37,2013-09-25 00:09:00,
2013-09-24 20:11:00,51.0,48.8,30.04,NNE,32,0.0,0.0,92,0.00,CLR,,0.00,WeatherDisplay:10.37,2013-09-25 00:11:00,
2013-09-24 20:12:00,50.8,48.6,30.04,NE,34,0.0,0.0,92,0.00,CLR,,0.00,WeatherDisplay:10.37,2013-09-25 00:12:00,
2013-09-24 20:13:00,50.8,48.8,30.04,NE,34,0.0,0.0,93,0.00,CLR,,0.00,WeatherDisplay:10.37,2013-09-25 00:13:00,
2013-09-24 20:15:00,50.7,48.7,30.04,NE,34,0.0,0.0,93,0.00,CLR,,0.00,WeatherDisplay:10.37,2013-09-25 00:15:00,
2013-09-24 20:16:00,50.7,48.7,30.04,NE,56,0.0,0.0,93,0.00,CLR,,0.00,WeatherDisplay:10.37,2013-09-25 00:16:00,
2013-09-24 20:17:00,50.5,48.6,30.04,NE,56,0.0,0.0,93,0.00,CLR,,0.00,WeatherDisplay:10.37,2013-09-25 00:17:00,
2013-09-24 20:19:00,50.5,48.6,30.04,NE,56,0.0,0.0,93,0.00,CLR,,0.00,WeatherDisplay:10.37,2013-09-25 00:19:00,
2013-09-24 20:20:00,50.4,48.5,30.04,ENE,58,0.0,0.0,93,0.00,CLR,,0.00,WeatherDisplay:10.37,2013-09-25 00:20:00,
2013-09-24 20:21:00,50.4,48.5,30.04,ENE,58,0.0,0.0,93,0.00,CLR,,0.00,WeatherDisplay:10.37,2013-09-25 00:21:00,
2013-09-24 20:22:00,50.4,48.7,30.04,ENE,58,0.0,0.0,94,0.00,CLR,,0.00,WeatherDisplay:10.37,2013-09-25 00:22:00,
2013-09-24 20:24:00,50.4,48.7,30.04,ENE,58,0.0,0.0,94,0.00,CLR,,0.00,WeatherDisplay:10.37,2013-09-25 00:24:00,
2013-09-24 20:25:00,50.2,48.5,30.04,ENE,58,0.0,0.0,94,0.00,CLR,,0.00,WeatherDisplay:10.37,2013-09-25 00:25:00,
2013-09-24 20:26:00,50.2,48.5,30.04,ENE,58,0.0,0.0,94,0.00,CLR,,0.00,WeatherDisplay:10.37,2013-09-25 00:26:00,
2013-09-24 20:27:00,50.2,48.5,30.04,ENE,58,0.0,0.0,94,0.00,CLR,,0.00,WeatherDisplay:10.37,2013-09-25 00:27:00,
2013-09-24 20:29:00,50.2,48.5,30.04,ENE,58,0.0,0.0,94,0.00,CLR,,0.00,WeatherDisplay:10.37,2013-09-25 00:29:00,
2013-09-24 20:30:00,50.2,48.3,30.04,ENE,58,0.0,0.0,93,0.00,CLR,,0.00,WeatherDisplay:10.37,2013-09-25 00:30:00,
2013-09-24 20:31:00,50.2,48.3,30.04,ENE,58,0.0,0.0,93,0.00,CLR,,0.00,WeatherDisplay:10.37,2013-09-25 00:31:00,
2013-09-24 20:32:00,50.2,48.3,30.04,ENE,58,0.0,0.0,93,0.00,CLR,,0.00,WeatherDisplay:10.37,2013-09-25 00:32:00,
2013-09-24 20:33:00,50.2,48.3,30.04,ENE,58,0.0,0.0,93,0.00,CLR,,0.00,WeatherDisplay:10.37,2013-09-25 00:33:00,
2013-09-24 20:34:00,50.2,48.3,30.04,ENE,58,5.0,5.0,93,0.00,CLR,,0.00,WeatherDisplay:10.37,2013-09-25 00:34:00,
2013-09-24 20:35:00,50.2,48.3,30.04,ENE,58,4.6,4.6,93,0.00,CLR,,0.00,WeatherDisplay:10.37,2013-09-25 00:35:00,
2013-09-24 20:37:00,50.2,48.3,30.04,ENE,64,3.5,3.5,93,0.00,CLR,,0.00,WeatherDisplay:10.37,2013-09-25 00:37:00,
2013-09-24 20:38:00,50.4,48.5,30.04,ENE,76,4.6,4.6,93,0.00,CLR,,0.00,WeatherDisplay:10.37,2013-09-25 00:38:00,
2013-09-24 20:40:00,50.4,48.2,30.04,ENE,76,5.0,5.0,92,0.00,CLR,,0.00,WeatherDisplay:10.37,2013-09-25 00:40:00,
2013-09-24 20:42:00,50.4,48.2,30.04,ENE,76,3.5,3.5,92,0.00,CLR,,0.00,WeatherDisplay:10.37,2013-09-25 00:42:00,
2013-09-24 20:43:00,50.4,48.2,30.04,ENE,76,3.5,3.5,92,0.00,CLR,,0.00,WeatherDisplay:10.37,2013-09-25 00:43:00,
2013-09-24 20:45:00,50.4,48.2,30.04,East,89,3.5,3.5,92,0.00,CLR,,0.00,WeatherDisplay:10.37,2013-09-25 00:45:00,
2013-09-24 20:46:00,50.4,48.2,30.04,East,89,3.5,3.5,92,0.00,CLR,,0.00,WeatherDisplay:10.37,2013-09-25 00:46:00,
2013-09-24 20:48:00,50.4,48.2,30.04,East,89,0.0,0.0,92,0.00,CLR,,0.00,WeatherDisplay:10.37,2013-09-25 00:48:00,
2013-09-24 20:49:00,50.5,48.0,30.04,East,89,0.0,0.0,91,0.00,CLR,,0.00,WeatherDisplay:10.37,2013-09-25 00:49:00,
2013-09-24 20:51:00,50.5,48.0,30.04,East,89,0.0,0.0,91,0.00,CLR,,0.00,WeatherDisplay:10.37,2013-09-25 00:51:00,
2013-09-24 20:53:00,50.7,47.9,30.04,East,89,0.0,0.0,90,0.00,CLR,,0.00,WeatherDisplay:10.37,2013-09-25 00:53:00,
2013-09-24 20:55:00,50.7,47.9,30.04,East,89,0.0,0.0,90,0.00,CLR,,0.00,WeatherDisplay:10.37,2013-09-25 00:55:00,
2013-09-24 20:56:00,50.7,47.9,30.05,East,89,0.0,0.0,90,0.00,CLR,,0.00,WeatherDisplay:10.37,2013-09-25 00:56:00,
2013-09-24 20:57:00,50.7,47.9,30.05,East,89,0.0,0.0,90,0.00,CLR,,0.00,WeatherDisplay:10.37,2013-09-25 00:57:00,
2013-09-24 20:58:00,50.7,47.9,30.05,East,89,0.0,0.0,90,0.00,CLR,,0.00,WeatherDisplay:10.37,2013-09-25 00:58:00,
2013-09-24 21:00:00,50.7,47.9,30.05,East,89,0.0,0.0,90,0.00,CLR,,0.00,WeatherDisplay:10.37,2013-09-25 01:00:00,
2013-09-24 21:02:00,50.8,48.0,30.05,ESE,102,3.5,3.5,90,0.00,CLR,,0.00,WeatherDisplay:10.37,2013-09-25 01:02:00,
2013-09-24 21:03:00,50.8,47.7,30.05,ESE,102,3.5,3.5,89,0.00,CLR,,0.00,WeatherDisplay:10.37,2013-09-25 01:03:00,
2013-09-24 21:05:00,50.8,47.7,30.04,ESE,102,3.5,3.5,89,0.00,CLR,,0.00,WeatherDisplay:10.37,2013-09-25 01:05:00,
2013-09-24 21:07:00,50.7,47.6,30.03,ESE,102,0.0,0.0,89,0.00,CLR,,0.00,WeatherDisplay:10.37,2013-09-25 01:07:00,
2013-09-24 21:08:00,50.7,47.6,30.03,ESE,102,0.0,0.0,89,0.00,CLR,,0.00,WeatherDisplay:10.37,2013-09-25 01:08:00,
2013-09-24 21:09:00,50.7,47.6,30.03,ESE,103,0.0,0.0,89,0.00,CLR,,0.00,WeatherDisplay:10.37,2013-09-25 01:09:00,
2013-09-24 21:10:00,50.7,47.9,30.03,ESE,103,0.0,0.0,90,0.00,CLR,,0.00,WeatherDisplay:10.37,2013-09-25 01:10:00,
2013-09-24 21:12:00,50.5,47.7,30.03,ESE,102,0.0,0.0,90,0.00,CLR,,0.00,WeatherDisplay:10.37,2013-09-25 01:12:00,
2013-09-24 21:13:00,50.5,47.7,30.03,ESE,103,0.0,0.0,90,0.00,CLR,,0.00,WeatherDisplay:10.37,2013-09-25 01:13:00,
2013-09-24 21:14:00,50.7,47.9,30.03,ESE,103,0.0,0.0,90,0.00,CLR,,0.00,WeatherDisplay:10.37,2013-09-25 01:14:00,
2013-09-24 21:16:00,50.7,47.9,30.03,ESE,103,0.0,0.0,90,0.00,CLR,,0.00,WeatherDisplay:10.37,2013-09-25 01:16:00,
2013-09-24 21:17:00,50.7,47.6,30.03,ESE,103,0.0,0.0,89,0.00,CLR,,0.00,WeatherDisplay:10.37,2013-09-25 01:17:00,
2013-09-24 21:18:00,50.7,47.6,30.03,ESE,103,0.0,0.0,89,0.00,CLR,,0.00,WeatherDisplay:10.37,2013-09-25 01:18:00,
2013-09-24 21:19:00,50.7,47.9,30.03,ESE,104,0.0,0.0,90,0.00,CLR,,0.00,WeatherDisplay:10.37,2013-09-25 01:19:00,
2013-09-24 21:21:00,50.7,47.9,30.03,ESE,104,1.1,0.0,90,0.00,CLR,,0.00,WeatherDisplay:10.37,2013-09-25 01:21:00,
2013-09-24 21:23:00,50.7,47.9,30.03,ESE,106,0.0,0.0,90,0.00,CLR,,0.00,WeatherDisplay:10.37,2013-09-25 01:23:00,
2013-09-24 21:24:00,50.7,47.9,30.03,ESE,106,0.0,0.0,90,0.00,CLR,,0.00,WeatherDisplay:10.37,2013-09-25 01:24:00,
2013-09-24 21:26:00,50.8,48.0,30.03,ESE,106,0.0,0.0,90,0.00,CLR,,0.00,WeatherDisplay:10.37,2013-09-25 01:26:00,
2013-09-24 21:28:00,51.0,48.2,30.02,ESE,107,3.5,3.5,90,0.00,CLR,,0.00,WeatherDisplay:10.37,2013-09-25 01:28:00,
2013-09-24 21:29:00,51.0,47.9,30.02,ESE,107,4.6,4.6,89,0.00,CLR,,0.00,WeatherDisplay:10.37,2013-09-25 01:29:00,
2013-09-24 21:30:00,51.0,47.9,30.02,ESE,107,4.6,4.6,89,0.00,CLR,,0.00,WeatherDisplay:10.37,2013-09-25 01:30:00,
2013-09-24 21:31:00,51.1,48.0,30.02,ESE,109,3.5,3.5,89,0.00,CLR,,0.00,WeatherDisplay:10.37,2013-09-25 01:31:00,
2013-09-24 21:33:00,51.3,48.2,30.02,ESE,107,0.0,0.0,89,0.00,CLR,,0.00,WeatherDisplay:10.37,2013-09-25 01:33:00,
2013-09-24 21:34:00,51.4,48.3,30.02,ESE,109,0.0,0.0,89,0.00,CLR,,0.00,WeatherDisplay:10.37,2013-09-25 01:34:00,
2013-09-24 21:35:00,51.4,48.3,30.02,ESE,109,0.0,0.0,89,0.00,CLR,,0.00,WeatherDisplay:10.37,2013-09-25 01:35:00,
2013-09-24 21:38:00,51.6,48.2,30.02,SE,126,3.5,3.5,88,0.00,CLR,,0.00,WeatherDisplay:10.37,2013-09-25 01:38:00,
2013-09-24 21:39:00,51.7,48.3,30.02,SE,126,3.5,3.5,88,0.00,CLR,,0.00,WeatherDisplay:10.37,2013-09-25 01:39:00,
2013-09-24 21:40:00,51.7,48.0,30.02,SE,126,2.3,2.3,87,0.00,CLR,,0.00,WeatherDisplay:10.37,2013-09-25 01:40:00,
2013-09-24 21:43:00,52.0,48.3,30.02,SE,126,0.0,0.0,87,0.00,CLR,,0.00,WeatherDisplay:10.37,2013-09-25 01:43:00,
2013-09-24 21:44:00,52.2,48.1,30.02,SE,126,0.0,0.0,86,0.00,CLR,,0.00,WeatherDisplay:10.37,2013-09-25 01:44:00,
2013-09-24 21:45:00,52.2,48.1,30.02,SE,126,0.0,0.0,86,0.00,CLR,,0.00,WeatherDisplay:10.37,2013-09-25 01:45:00,
2013-09-24 21:46:00,52.2,48.1,30.02,SE,126,0.0,0.0,86,0.00,CLR,,0.00,WeatherDisplay:10.37,2013-09-25 01:46:00,
2013-09-24 21:48:00,52.3,48.2,30.02,SE,130,3.5,3.5,86,0.00,CLR,,0.00,WeatherDisplay:10.37,2013-09-25 01:48:00,
2013-09-24 21:49:00,52.3,48.2,30.02,SE,130,3.5,3.5,86,0.00,CLR,,0.00,WeatherDisplay:10.37,2013-09-25 01:49:00,
2013-09-24 21:50:00,52.5,48.4,30.02,SE,130,0.0,0.0,86,0.00,CLR,,0.00,WeatherDisplay:10.37,2013-09-25 01:50:00,
2013-09-24 21:51:00,52.5,48.4,30.02,SE,130,0.0,0.0,86,0.00,CLR,,0.00,WeatherDisplay:10.37,2013-09-25 01:51:00,
2013-09-24 21:53:00,52.5,48.1,30.02,SE,131,0.0,0.0,85,0.00,CLR,,0.00,WeatherDisplay:10.37,2013-09-25 01:53:00,
2013-09-24 21:54:00,52.5,48.1,30.02,SE,131,0.0,0.0,85,0.00,CLR,,0.00,WeatherDisplay:10.37,2013-09-25 01:54:00,
2013-09-24 21:55:00,52.6,48.2,30.02,SE,133,0.0,0.0,85,0.00,CLR,,0.00,WeatherDisplay:10.37,2013-09-25 01:55:00,
2013-09-24 21:56:00,52.6,48.2,30.02,SE,133,0.0,0.0,85,0.00,CLR,,0.00,WeatherDisplay:10.37,2013-09-25 01:56:00,
2013-09-24 21:59:00,52.6,48.2,30.01,SE,133,0.0,0.0,85,0.00,CLR,,0.00,WeatherDisplay:10.37,2013-09-25 01:59:00,
2013-09-24 22:00:00,52.8,48.4,30.01,SE,133,0.0,0.0,85,0.00,CLR,,0.00,WeatherDisplay:10.37,2013-09-25 02:00:00,
2013-09-24 22:01:00,52.8,48.4,30.01,SE,133,0.0,0.0,85,0.00,CLR,,0.00,WeatherDisplay:10.37,2013-09-25 02:01:00,
2013-09-24 22:04:00,52.8,48.1,30.01,ESE,113,2.3,0.0,84,0.00,CLR,,0.00,WeatherDisplay:10.37,2013-09-25 02:04:00,
2013-09-24 22:05:00,52.8,48.1,30.01,ESE,113,0.0,0.0,84,0.00,CLR,,0.00,WeatherDisplay:10.37,2013-09-25 02:05:00,
2013-09-24 22:06:00,52.8,48.1,30.01,ESE,114,0.0,0.0,84,0.00,CLR,,0.00,WeatherDisplay:10.37,2013-09-25 02:06:00,
2013-09-24 22:09:00,52.9,47.9,30.01,ESE,114,0.0,0.0,83,0.00,CLR,,0.00,WeatherDisplay:10.37,2013-09-25 02:09:00,
2013-09-24 22:10:00,52.9,47.9,30.01,ESE,114,0.0,0.0,83,0.00,CLR,,0.00,WeatherDisplay:10.37,2013-09-25 02:10:00,
2013-09-24 22:11:00,52.9,47.9,30.01,ESE,114,0.0,0.0,83,0.00,CLR,,0.00,WeatherDisplay:10.37,2013-09-25 02:11:00,
2013-09-24 22:12:00,52.9,47.9,30.01,ESE,114,0.0,0.0,83,0.00,CLR,,0.00,WeatherDisplay:10.37,2013-09-25 02:12:00,
2013-09-24 22:14:00,52.9,47.6,30.01,ESE,114,0.0,0.0,82,0.00,CLR,,0.00,WeatherDisplay:10.37,2013-09-25 02:14:00,
2013-09-24 22:15:00,52.9,47.6,30.01,ESE,119,0.0,0.8,82,0.00,CLR,,0.00,WeatherDisplay:10.37,2013-09-25 02:15:00,
2013-09-24 22:17:00,52.9,47.6,30.01,ESE,119,0.0,0.0,82,0.00,CLR,,0.00,WeatherDisplay:10.37,2013-09-25 02:17:00,
2013-09-24 22:19:00,53.1,47.4,30.01,SSE,167,0.0,0.0,81,0.00,CLR,,0.00,WeatherDisplay:10.37,2013-09-25 02:19:00,
2013-09-24 22:20:00,53.1,47.4,30.01,SSE,167,0.0,0.0,81,0.00,CLR,,0.00,WeatherDisplay:10.37,2013-09-25 02:20:00,
2013-09-24 22:21:00,53.1,47.4,30.01,SSE,167,0.0,0.0,81,0.00,CLR,,0.00,WeatherDisplay:10.37,2013-09-25 02:21:00,
2013-09-24 22:22:00,53.1,47.1,30.01,SSE,168,0.0,0.0,80,0.00,CLR,,0.00,WeatherDisplay:10.37,2013-09-25 02:22:00,
2013-09-24 22:24:00,53.1,47.1,30.01,SSE,167,0.0,0.0,80,0.00,CLR,,0.00,WeatherDisplay:10.37,2013-09-25 02:24:00,
2013-09-24 22:25:00,53.1,47.1,30.01,SSE,167,0.0,0.0,80,0.00,CLR,,0.00,WeatherDisplay:10.37,2013-09-25 02:25:00,
2013-09-24 22:26:00,53.1,47.1,30.01,SSE,167,0.0,0.0,80,0.00,CLR,,0.00,WeatherDisplay:10.37,2013-09-25 02:26:00,
2013-09-24 22:27:00,53.1,47.1,30.01,SSE,167,0.0,0.0,80,0.00,CLR,,0.00,WeatherDisplay:10.37,2013-09-25 02:27:00,
2013-09-24 22:31:00,53.1,47.1,30.01,SSE,167,0.0,0.0,80,0.00,CLR,,0.00,WeatherDisplay:10.37,2013-09-25 02:31:00,
2013-09-24 22:32:00,53.1,47.1,30.01,SSE,167,0.0,0.0,80,0.00,CLR,,0.00,WeatherDisplay:10.37,2013-09-25 02:32:00,
2013-09-24 22:36:00,53.1,47.1,30.01,South,172,0.0,0.0,80,0.00,CLR,,0.00,WeatherDisplay:10.37,2013-09-25 02:36:00,
2013-09-24 22:37:00,53.1,47.1,30.01,South,172,0.0,0.0,80,0.00,CLR,,0.00,WeatherDisplay:10.37,2013-09-25 02:37:00,
2013-09-24 22:41:00,53.2,47.2,30.01,South,186,0.0,0.0,80,0.00,CLR,,0.00,WeatherDisplay:10.37,2013-09-25 02:41:00,
2013-09-24 22:42:00,53.2,47.2,30.01,South,186,0.0,0.0,80,0.00,CLR,,0.00,WeatherDisplay:10.37,2013-09-25 02:42:00,
2013-09-24 22:46:00,53.2,47.8,30.01,South,186,0.0,0.0,82,0.00,CLR,,0.00,WeatherDisplay:10.37,2013-09-25 02:46:00,
2013-09-24 22:47:00,53.1,47.7,30.01,South,186,0.0,0.0,82,0.00,CLR,,0.00,WeatherDisplay:10.37,2013-09-25 02:47:00,
2013-09-24 22:51:00,53.1,48.1,30.01,South,186,3.5,0.0,83,0.00,CLR,,0.00,WeatherDisplay:10.37,2013-09-25 02:51:00,
2013-09-24 22:52:00,53.1,48.1,30.01,South,186,0.0,0.0,83,0.00,CLR,,0.00,WeatherDisplay:10.37,2013-09-25 02:52:00,
2013-09-24 22:53:00,53.1,48.1,30.01,South,186,0.0,0.0,83,0.00,CLR,,0.00,WeatherDisplay:10.37,2013-09-25 02:53:00,
2013-09-24 22:56:00,53.1,48.1,30.01,South,186,3.5,3.5,83,0.00,CLR,,0.00,WeatherDisplay:10.37,2013-09-25 02:56:00,
2013-09-24 22:57:00,52.9,47.9,30.01,South,186,3.5,0.0,83,0.00,CLR,,0.00,WeatherDisplay:10.37,2013-09-25 02:57:00,
2013-09-24 22:58:00,52.9,47.9,30.01,South,186,0.0,0.0,83,0.00,CLR,,0.00,WeatherDisplay:10.37,2013-09-25 02:58:00,
2013-09-24 23:01:00,52.8,48.1,30.01,South,186,1.1,0.0,84,0.00,CLR,,0.00,WeatherDisplay:10.37,2013-09-25 03:01:00,
2013-09-24 23:02:00,52.8,48.1,30.01,South,186,0.0,0.0,84,0.00,CLR,,0.00,WeatherDisplay:10.37,2013-09-25 03:02:00,
2013-09-24 23:03:00,52.8,48.1,30.01,South,185,0.0,0.0,84,0.00,CLR,,0.00,WeatherDisplay:10.37,2013-09-25 03:03:00,
2013-09-24 23:06:00,52.5,48.1,30.01,South,185,0.0,0.0,85,0.00,CLR,,0.00,WeatherDisplay:10.37,2013-09-25 03:06:00,
2013-09-24 23:07:00,52.5,48.1,30.01,South,185,0.0,0.0,85,0.00,CLR,,0.00,WeatherDisplay:10.37,2013-09-25 03:07:00,
2013-09-24 23:08:00,52.3,47.9,30.01,South,185,0.0,0.0,85,0.00,CLR,,0.00,WeatherDisplay:10.37,2013-09-25 03:08:00,
2013-09-24 23:09:00,52.2,48.1,30.01,South,185,0.0,0.0,86,0.00,CLR,,0.00,WeatherDisplay:10.37,2013-09-25 03:09:00,
2013-09-24 23:12:00,52.0,47.9,30.01,South,185,0.0,0.0,86,0.00,CLR,,0.00,WeatherDisplay:10.37,2013-09-25 03:12:00,
2013-09-24 23:13:00,52.0,47.9,30.01,South,185,0.0,0.0,86,0.00,CLR,,0.00,WeatherDisplay:10.37,2013-09-25 03:13:00,
2013-09-24 23:14:00,52.0,47.9,30.01,South,185,0.0,0.0,86,0.00,CLR,,0.00,WeatherDisplay:10.37,2013-09-25 03:14:00,
2013-09-24 23:17:00,51.7,47.6,30.01,South,185,0.0,0.0,86,0.00,CLR,,0.00,WeatherDisplay:10.37,2013-09-25 03:17:00,
2013-09-24 23:19:00,51.6,47.9,30.01,South,185,0.0,0.0,87,0.00,CLR,,0.00,WeatherDisplay:10.37,2013-09-25 03:19:00,
2013-09-24 23:20:00,51.6,47.9,30.01,South,186,0.0,0.0,87,0.00,CLR,,0.00,WeatherDisplay:10.37,2013-09-25 03:20:00,
2013-09-24 23:22:00,51.1,47.4,30.02,South,185,0.0,0.0,87,0.00,CLR,,0.00,WeatherDisplay:10.37,2013-09-25 03:22:00,
2013-09-24 23:23:00,50.8,47.1,30.02,South,185,0.0,0.1,87,0.00,CLR,,0.00,WeatherDisplay:10.37,2013-09-25 03:23:00,
2013-09-24 23:24:00,50.8,47.1,30.02,South,185,1.1,1.1,87,0.00,CLR,,0.00,WeatherDisplay:10.37,2013-09-25 03:24:00,
2013-09-24 23:25:00,50.5,47.1,30.02,South,185,0.0,0.0,88,0.00,CLR,,0.00,WeatherDisplay:10.37,2013-09-25 03:25:00,
2013-09-24 23:28:00,50.1,46.7,30.02,South,185,0.0,0.0,88,0.00,CLR,,0.00,WeatherDisplay:10.37,2013-09-25 03:28:00,
2013-09-24 23:29:00,49.9,46.8,30.02,South,185,0.0,0.0,89,0.00,CLR,,0.00,WeatherDisplay:10.37,2013-09-25 03:29:00,
2013-09-24 23:30:00,49.8,46.7,30.02,South,185,0.0,0.0,89,0.00,CLR,,0.00,WeatherDisplay:10.37,2013-09-25 03:30:00,
2013-09-24 23:33:00,49.5,46.7,30.02,South,185,0.0,0.0,90,0.00,CLR,,0.00,WeatherDisplay:10.37,2013-09-25 03:33:00,
2013-09-24 23:34:00,49.5,47.0,30.02,South,185,0.0,0.0,91,0.00,CLR,,0.00,WeatherDisplay:10.37,2013-09-25 03:34:00,
2013-09-24 23:35:00,49.5,47.0,30.02,South,185,0.0,0.0,91,0.00,CLR,,0.00,WeatherDisplay:10.37,2013-09-25 03:35:00,
2013-09-24 23:38:00,49.5,47.0,30.02,South,185,0.0,0.0,91,0.00,CLR,,0.00,WeatherDisplay:10.37,2013-09-25 03:38:00,
2013-09-24 23:39:00,49.5,47.0,30.02,South,185,0.0,0.0,91,0.00,CLR,,0.00,WeatherDisplay:10.37,2013-09-25 03:39:00,
2013-09-24 23:40:00,49.6,47.4,30.01,South,185,0.0,0.0,92,0.00,CLR,,0.00,WeatherDisplay:10.37,2013-09-25 03:40:00,
2013-09-24 23:41:00,49.6,47.4,30.01,South,185,0.0,0.0,92,0.00,CLR,,0.00,WeatherDisplay:10.37,2013-09-25 03:41:00,
2013-09-24 23:43:00,49.8,47.6,30.01,South,185,0.0,0.0,92,0.00,CLR,,0.00,WeatherDisplay:10.37,2013-09-25 03:43:00,
2013-09-24 23:44:00,49.8,47.6,30.01,South,185,0.0,0.0,92,0.00,CLR,,0.00,WeatherDisplay:10.37,2013-09-25 03:44:00,
2013-09-24 23:46:00,49.8,47.6,30.01,South,185,1.1,0.0,92,0.00,CLR,,0.00,WeatherDisplay:10.37,2013-09-25 03:46:00,
2013-09-24 23:48:00,49.9,47.7,30.02,South,185,0.0,0.0,92,0.00,CLR,,0.00,WeatherDisplay:10.37,2013-09-25 03:48:00,
2013-09-24 23:49:00,50.1,47.9,30.02,South,185,0.0,0.0,92,0.00,CLR,,0.00,WeatherDisplay:10.37,2013-09-25 03:49:00,
2013-09-24 23:51:00,50.1,47.9,30.02,South,185,0.0,0.0,92,0.00,CLR,,0.00,WeatherDisplay:10.37,2013-09-25 03:51:00,
2013-09-24 23:54:00,50.4,48.2,30.02,South,185,3.5,3.5,92,0.00,CLR,,0.00,WeatherDisplay:10.37,2013-09-25 03:54:00,
2013-09-24 23:55:00,50.4,48.2,30.02,South,185,3.5,3.5,92,0.00,CLR,,0.00,WeatherDisplay:10.37,2013-09-25 03:55:00,
2013-09-24 23:56:00,50.4,48.2,30.02,South,185,3.5,3.5,92,0.00,CLR,,0.00,WeatherDisplay:10.37,2013-09-25 03:56:00,
2013-09-24 23:57:00,50.4,48.2,30.02,South,185,3.5,3.5,92,0.00,CLR,,0.00,WeatherDisplay:10.37,2013-09-25 03:57:00,
2013-09-24 23:59:00,50.5,48.3,30.02,South,185,3.5,3.5,92,0.00,CLR,,0.00,WeatherDisplay:10.37,2013-09-25 03:59:00,